Observation data for Mertzon on 07/05/2020      Previous  Date       Current Mesonet Observations  Soil Data  Daily Summary Page  Observations in Plain Language
KME1 050500Z 21003KT 25/19 A2993 RMK A01 T02500191  RH  069%=      5-min Rain = 0
KME1 050501Z 20002KT 25/19 A2993 RMK A01 T02490185  RH  068%=      5-min Rain = 0
KME1 050502Z 21002KT 25/19 A2993 RMK A01 T02470186  RH  069%=      5-min Rain = 0
KME1 050503Z 22002KT 25/19 A2993 RMK A01 T02470186  RH  069%=      5-min Rain = 0
KME1 050504Z 23003KT 25/18 A2993 RMK A01 T02460179  RH  066%=      5-min Rain = 0
KME1 050505Z 21002KT 25/17 A2993 RMK A01 T02460173  RH  064%=      5-min Rain = 0
KME1 050506Z 21003KT 25/18 A2993 RMK A01 T02460176  RH  065%=      5-min Rain = 0
KME1 050507Z 20004KT 25/17 A2993 RMK A01 T02460173  RH  064%=      5-min Rain = 0
KME1 050508Z 20004KT 25/17 A2993 RMK A01 T02470174  RH  064%=      5-min Rain = 0
KME1 050509Z 20004KT 25/17 A2993 RMK A01 T02470174  RH  064%=      5-min Rain = 0
KME1 050510Z 20003KT 25/17 A2993 RMK A01 T02480173  RH  063%=      5-min Rain = 0
KME1 050511Z 20003KT 25/17 A2993 RMK A01 T02480173  RH  063%=      5-min Rain = 0
KME1 050512Z 19004KT 25/17 A2993 RMK A01 T02480172  RH  063%=      5-min Rain = 0
KME1 050513Z 20004KT 25/17 A2993 RMK A01 T02480169  RH  061%=      5-min Rain = 0
KME1 050514Z 20004KT 25/17 A2993 RMK A01 T02490169  RH  061%=      5-min Rain = 0
KME1 050515Z 20004KT 25/17 A2993 RMK A01 T02500169  RH  061%=      5-min Rain = 0
KME1 050516Z 20004KT 25/17 A2993 RMK A01 T02510169  RH  060%=      5-min Rain = 0
KME1 050517Z 21004KT 25/17 A2993 RMK A01 T02520169  RH  060%=      5-min Rain = 0
KME1 050518Z 21005KT 25/17 A2992 RMK A01 T02520169  RH  060%=      5-min Rain = 0
KME1 050519Z 20005KT 25/17 A2992 RMK A01 T02520172  RH  061%=      5-min Rain = 0
KME1 050520Z 20005KT 25/17 A2992 RMK A01 T02500173  RH  062%=      5-min Rain = 0
KME1 050521Z 20004KT 25/17 A2992 RMK A01 T02490172  RH  062%=      5-min Rain = 0
KME1 050522Z 21004KT 25/17 A2992 RMK A01 T02480172  RH  062%=      5-min Rain = 0
KME1 050523Z 21004KT 25/17 A2992 RMK A01 T02480173  RH  063%=      5-min Rain = 0
KME1 050524Z 20003KT 25/17 A2992 RMK A01 T02480172  RH  063%=      5-min Rain = 0
KME1 050525Z 20003KT 25/17 A2992 RMK A01 T02460172  RH  063%=      5-min Rain = 0
KME1 050526Z 21003KT 25/17 A2992 RMK A01 T02460173  RH  064%=      5-min Rain = 0
KME1 050527Z 21003KT 25/17 A2992 RMK A01 T02450170  RH  063%=      5-min Rain = 0
KME1 050528Z 21003KT 25/17 A2992 RMK A01 T02450169  RH  063%=      5-min Rain = 0
KME1 050529Z 21003KT 25/17 A2992 RMK A01 T02450170  RH  063%=      5-min Rain = 0
KME1 050530Z 21003KT 25/17 A2992 RMK A01 T02450172  RH  064%=      5-min Rain = 0
KME1 050531Z 21004KT 24/17 A2992 RMK A01 T02440171  RH  064%=      5-min Rain = 0
KME1 050532Z 21004KT 24/17 A2992 RMK A01 T02440171  RH  064%=      5-min Rain = 0
KME1 050533Z 20004KT 24/17 A2992 RMK A01 T02440170  RH  064%=      5-min Rain = 0
KME1 050534Z 21004KT 24/17 A2992 RMK A01 T02440170  RH  063%=      5-min Rain = 0
KME1 050535Z 21004KT 24/17 A2992 RMK A01 T02440170  RH  063%=      5-min Rain = 0
KME1 050536Z 21004KT 24/17 A2992 RMK A01 T02440170  RH  063%=      5-min Rain = 0
KME1 050537Z 21004KT 24/17 A2992 RMK A01 T02440170  RH  063%=      5-min Rain = 0
KME1 050538Z 21004KT 24/17 A2991 RMK A01 T02440171  RH  064%=      5-min Rain = 0
KME1 050539Z 21004KT 24/17 A2991 RMK A01 T02440173  RH  064%=      5-min Rain = 0
KME1 050540Z 22004KT 24/17 A2991 RMK A01 T02430174  RH  065%=      5-min Rain = 0
KME1 050541Z 22005KT 24/17 A2991 RMK A01 T02420174  RH  066%=      5-min Rain = 0
KME1 050542Z 22005KT 24/17 A2991 RMK A01 T02410174  RH  066%=      5-min Rain = 0
KME1 050543Z 23005KT 24/17 A2991 RMK A01 T02400172  RH  065%=      5-min Rain = 0
KME1 050544Z 22005KT 24/17 A2991 RMK A01 T02400172  RH  066%=      5-min Rain = 0
KME1 050545Z 23005KT 24/17 A2991 RMK A01 T02390170  RH  065%=      5-min Rain = 0
KME1 050546Z 23005KT 24/17 A2991 RMK A01 T02390169  RH  065%=      5-min Rain = 0
KME1 050547Z 23005KT 24/17 A2992 RMK A01 T02400170  RH  065%=      5-min Rain = 0
KME1 050548Z 23004KT 24/17 A2992 RMK A01 T02390170  RH  065%=      5-min Rain = 0
KME1 050549Z 23003KT 24/17 A2992 RMK A01 T02390169  RH  065%=      5-min Rain = 0
KME1 050550Z 23003KT 24/17 A2992 RMK A01 T02390167  RH  064%=      5-min Rain = 0
KME1 050551Z 23003KT 24/17 A2992 RMK A01 T02390166  RH  064%=      5-min Rain = 0
KME1 050552Z 23004KT 24/17 A2992 RMK A01 T02390166  RH  064%=      5-min Rain = 0
KME1 050553Z 22004KT 24/17 A2992 RMK A01 T02400165  RH  063%=      5-min Rain = 0
KME1 050554Z 22004KT 24/17 A2991 RMK A01 T02400165  RH  063%=      5-min Rain = 0
KME1 050555Z 22004KT 24/17 A2991 RMK A01 T02410165  RH  062%=      5-min Rain = 0
KME1 050556Z 22004KT 24/17 A2991 RMK A01 T02410166  RH  063%=      5-min Rain = 0
KME1 050557Z 21004KT 24/17 A2991 RMK A01 T02410165  RH  063%=      5-min Rain = 0
KME1 050558Z 21004KT 24/17 A2991 RMK A01 T02410167  RH  063%=      5-min Rain = 0
KME1 050559Z 21004KT 24/17 A2991 RMK A01 T02410167  RH  063%=      5-min Rain = 0
KME1 050600Z 21004KT 24/17 A2991 RMK A01 T02410165  RH  062%=      5-min Rain = 0
KME1 050601Z 21004KT 24/17 A2991 RMK A01 T02420165  RH  062%=      5-min Rain = 0
KME1 050602Z 20004KT 24/17 A2991 RMK A01 T02420165  RH  062%=      5-min Rain = 0
KME1 050603Z 20004KT 24/17 A2991 RMK A01 T02430165  RH  062%=      5-min Rain = 0
KME1 050604Z 21004KT 24/17 A2991 RMK A01 T02430165  RH  062%=      5-min Rain = 0
KME1 050605Z 21004KT 24/17 A2991 RMK A01 T02440166  RH  062%=      5-min Rain = 0
KME1 050606Z 21004KT 24/17 A2991 RMK A01 T02440167  RH  062%=      5-min Rain = 0
KME1 050607Z 21004KT 24/17 A2992 RMK A01 T02440166  RH  062%=      5-min Rain = 0
KME1 050608Z 22005KT 24/16 A2992 RMK A01 T02430164  RH  061%=      5-min Rain = 0
KME1 050609Z 22005KT 24/17 A2992 RMK A01 T02430165  RH  062%=      5-min Rain = 0
KME1 050610Z 22005KT 24/17 A2992 RMK A01 T02430165  RH  062%=      5-min Rain = 0
KME1 050611Z 22006KT 24/16 A2992 RMK A01 T02430164  RH  061%=      5-min Rain = 0
KME1 050612Z 22006KT 24/16 A2992 RMK A01 T02430164  RH  061%=      5-min Rain = 0
KME1 050613Z 22005KT 24/16 A2992 RMK A01 T02430163  RH  061%=      5-min Rain = 0
KME1 050614Z 22005KT 24/16 A2991 RMK A01 T02430164  RH  061%=      5-min Rain = 0
KME1 050615Z 23006KT 24/16 A2991 RMK A01 T02430164  RH  061%=      5-min Rain = 0
KME1 050616Z 23006KT 24/16 A2991 RMK A01 T02430163  RH  061%=      5-min Rain = 0
KME1 050617Z 22006KT 24/16 A2991 RMK A01 T02430163  RH  061%=      5-min Rain = 0
KME1 050618Z 22006KT 24/16 A2991 RMK A01 T02440161  RH  060%=      5-min Rain = 0
KME1 050619Z 22006KT 24/16 A2991 RMK A01 T02440161  RH  060%=      5-min Rain = 0
KME1 050620Z 22006KT 25/16 A2991 RMK A01 T02450162  RH  060%=      5-min Rain = 0
KME1 050621Z 22007KT 25/16 A2991 RMK A01 T02450161  RH  059%=      5-min Rain = 0
KME1 050622Z 21007KT 25/16 A2991 RMK A01 T02460161  RH  059%=      5-min Rain = 0
KME1 050623Z 22007KT 25/16 A2992 RMK A01 T02460161  RH  059%=      5-min Rain = 0
KME1 050624Z 22006KT 25/16 A2992 RMK A01 T02470161  RH  059%=      5-min Rain = 0
KME1 050625Z 22006KT 25/16 A2992 RMK A01 T02470161  RH  059%=      5-min Rain = 0
KME1 050626Z 22005KT 25/16 A2992 RMK A01 T02470160  RH  059%=      5-min Rain = 0
KME1 050627Z 21006KT 25/16 A2992 RMK A01 T02470160  RH  058%=      5-min Rain = 0
KME1 050628Z 21005KT 25/16 A2992 RMK A01 T02470160  RH  058%=      5-min Rain = 0
KME1 050629Z 21005KT 25/16 A2992 RMK A01 T02470160  RH  058%=      5-min Rain = 0
KME1 050630Z 21005KT 25/16 A2992 RMK A01 T02480161  RH  058%=      5-min Rain = 0
KME1 050631Z 21005KT 25/16 A2992 RMK A01 T02470159  RH  058%=      5-min Rain = 0
KME1 050632Z 21005KT 25/16 A2992 RMK A01 T02480159  RH  058%=      5-min Rain = 0
KME1 050633Z 21005KT 25/16 A2992 RMK A01 T02480159  RH  058%=      5-min Rain = 0
KME1 050634Z 21005KT 25/16 A2992 RMK A01 T02480160  RH  058%=      5-min Rain = 0
KME1 050635Z 20005KT 25/16 A2992 RMK A01 T02480159  RH  058%=      5-min Rain = 0
KME1 050636Z 21005KT 25/16 A2992 RMK A01 T02480159  RH  058%=      5-min Rain = 0
KME1 050637Z 20005KT 25/16 A2992 RMK A01 T02480159  RH  058%=      5-min Rain = 0
KME1 050638Z 20005KT 25/16 A2992 RMK A01 T02480159  RH  058%=      5-min Rain = 0
KME1 050639Z 20004KT 25/16 A2992 RMK A01 T02490160  RH  058%=      5-min Rain = 0
KME1 050640Z 20005KT 25/16 A2992 RMK A01 T02480159  RH  058%=      5-min Rain = 0
KME1 050641Z 20005KT 25/16 A2992 RMK A01 T02480159  RH  057%=      5-min Rain = 0
KME1 050642Z 20005KT 25/16 A2992 RMK A01 T02490159  RH  057%=      5-min Rain = 0
KME1 050643Z 20005KT 25/16 A2992 RMK A01 T02490158  RH  057%=      5-min Rain = 0
KME1 050644Z 20004KT 25/16 A2992 RMK A01 T02490159  RH  057%=      5-min Rain = 0
KME1 050645Z 20005KT 25/16 A2992 RMK A01 T02490160  RH  057%=      5-min Rain = 0
KME1 050646Z 20005KT 25/16 A2992 RMK A01 T02490159  RH  057%=      5-min Rain = 0
KME1 050647Z 20005KT 25/16 A2992 RMK A01 T02490159  RH  057%=      5-min Rain = 0
KME1 050648Z 20005KT 25/16 A2992 RMK A01 T02490160  RH  058%=      5-min Rain = 0
KME1 050649Z 20005KT 25/16 A2992 RMK A01 T02480160  RH  058%=      5-min Rain = 0
KME1 050650Z 21006KT 25/16 A2992 RMK A01 T02470160  RH  058%=      5-min Rain = 0
KME1 050651Z 20006KT 25/16 A2992 RMK A01 T02460160  RH  058%=      5-min Rain = 0
KME1 050652Z 21006KT 25/16 A2992 RMK A01 T02460160  RH  059%=      5-min Rain = 0
KME1 050653Z 21007KT 25/16 A2992 RMK A01 T02450161  RH  059%=      5-min Rain = 0
KME1 050654Z 21007KT 24/16 A2992 RMK A01 T02440161  RH  060%=      5-min Rain = 0
KME1 050655Z 21007KT 25/16 A2992 RMK A01 T02450160  RH  059%=      5-min Rain = 0
KME1 050656Z 21007KT 24/16 A2992 RMK A01 T02440158  RH  058%=      5-min Rain = 0
KME1 050657Z 22007KT 25/16 A2992 RMK A01 T02460157  RH  058%=      5-min Rain = 0
KME1 050658Z 21006KT 25/16 A2992 RMK A01 T02470157  RH  057%=      5-min Rain = 0
KME1 050659Z 21006KT 25/16 A2992 RMK A01 T02480158  RH  057%=      5-min Rain = 0
KME1 050700Z 21006KT 25/16 A2992 RMK A01 T02480157  RH  057%=      5-min Rain = 0
KME1 050701Z 21006KT 25/16 A2992 RMK A01 T02490157  RH  057%=      5-min Rain = 0
KME1 050702Z 21005KT 25/16 A2992 RMK A01 T02490157  RH  057%=      5-min Rain = 0
KME1 050703Z 21005KT 25/16 A2992 RMK A01 T02500157  RH  056%=      5-min Rain = 0
KME1 050704Z 21005KT 25/16 A2992 RMK A01 T02500156  RH  056%=      5-min Rain = 0
KME1 050705Z 20004KT 25/16 A2992 RMK A01 T02510157  RH  056%=      5-min Rain = 0
KME1 050706Z 20004KT 25/16 A2992 RMK A01 T02510158  RH  056%=      5-min Rain = 0
KME1 050707Z 20003KT 25/16 A2992 RMK A01 T02510158  RH  056%=      5-min Rain = 0
KME1 050708Z 20003KT 25/16 A2992 RMK A01 T02510158  RH  056%=      5-min Rain = 0
KME1 050709Z 20003KT 25/16 A2992 RMK A01 T02510157  RH  056%=      5-min Rain = 0
KME1 050710Z 19003KT 25/16 A2992 RMK A01 T02510158  RH  056%=      5-min Rain = 0
KME1 050711Z 20003KT 25/16 A2992 RMK A01 T02510157  RH  056%=      5-min Rain = 0
KME1 050712Z 20004KT 25/16 A2992 RMK A01 T02510158  RH  056%=      5-min Rain = 0
KME1 050713Z 20004KT 25/16 A2992 RMK A01 T02510158  RH  056%=      5-min Rain = 0
KME1 050714Z 20004KT 25/16 A2992 RMK A01 T02510156  RH  056%=      5-min Rain = 0
KME1 050715Z 20004KT 25/16 A2992 RMK A01 T02510157  RH  056%=      5-min Rain = 0
KME1 050716Z 20004KT 25/16 A2992 RMK A01 T02510159  RH  056%=      5-min Rain = 0
KME1 050717Z 20004KT 25/16 A2992 RMK A01 T02510158  RH  057%=      5-min Rain = 0
KME1 050718Z 20003KT 25/16 A2992 RMK A01 T02500159  RH  057%=      5-min Rain = 0
KME1 050719Z 20003KT 25/16 A2992 RMK A01 T02490159  RH  057%=      5-min Rain = 0
KME1 050720Z 20003KT 25/16 A2992 RMK A01 T02480160  RH  058%=      5-min Rain = 0
KME1 050721Z 20003KT 25/16 A2992 RMK A01 T02470160  RH  059%=      5-min Rain = 0
KME1 050722Z 21004KT 25/16 A2992 RMK A01 T02460160  RH  059%=      5-min Rain = 0
KME1 050723Z 21004KT 25/16 A2992 RMK A01 T02450159  RH  058%=      5-min Rain = 0
KME1 050724Z 21004KT 25/16 A2992 RMK A01 T02450159  RH  059%=      5-min Rain = 0
KME1 050725Z 21004KT 25/16 A2992 RMK A01 T02450159  RH  059%=      5-min Rain = 0
KME1 050726Z 20004KT 25/16 A2992 RMK A01 T02450160  RH  059%=      5-min Rain = 0
KME1 050727Z 20004KT 25/16 A2992 RMK A01 T02450159  RH  059%=      5-min Rain = 0
KME1 050728Z 20004KT 24/16 A2992 RMK A01 T02440160  RH  059%=      5-min Rain = 0
KME1 050729Z 20004KT 24/16 A2992 RMK A01 T02440160  RH  059%=      5-min Rain = 0
KME1 050730Z 20004KT 24/16 A2992 RMK A01 T02440159  RH  059%=      5-min Rain = 0
KME1 050731Z 20004KT 24/16 A2992 RMK A01 T02440159  RH  059%=      5-min Rain = 0
KME1 050732Z 20004KT 25/16 A2992 RMK A01 T02450160  RH  059%=      5-min Rain = 0
KME1 050733Z 20005KT 24/16 A2992 RMK A01 T02440159  RH  059%=      5-min Rain = 0
KME1 050734Z 20005KT 25/16 A2992 RMK A01 T02450159  RH  059%=      5-min Rain = 0
KME1 050735Z 21005KT 25/16 A2992 RMK A01 T02450160  RH  059%=      5-min Rain = 0
KME1 050736Z 20005KT 25/16 A2992 RMK A01 T02450160  RH  059%=      5-min Rain = 0
KME1 050737Z 21005KT 24/16 A2992 RMK A01 T02440161  RH  060%=      5-min Rain = 0
KME1 050738Z 20006KT 24/16 A2992 RMK A01 T02430162  RH  060%=      5-min Rain = 0
KME1 050739Z 20005KT 24/16 A2992 RMK A01 T02420162  RH  061%=      5-min Rain = 0
KME1 050740Z 20005KT 24/16 A2992 RMK A01 T02410162  RH  061%=      5-min Rain = 0
KME1 050741Z 20005KT 24/16 A2992 RMK A01 T02410161  RH  061%=      5-min Rain = 0
KME1 050742Z 20005KT 24/16 A2992 RMK A01 T02410161  RH  061%=      5-min Rain = 0
KME1 050743Z 21005KT 24/16 A2992 RMK A01 T02410161  RH  061%=      5-min Rain = 0
KME1 050744Z 21005KT 24/16 A2992 RMK A01 T02420161  RH  061%=      5-min Rain = 0
KME1 050745Z 20005KT 24/16 A2992 RMK A01 T02420160  RH  060%=      5-min Rain = 0
KME1 050746Z 21005KT 24/16 A2992 RMK A01 T02420160  RH  060%=      5-min Rain = 0
KME1 050747Z 21005KT 24/16 A2992 RMK A01 T02420160  RH  060%=      5-min Rain = 0
KME1 050748Z 20005KT 24/16 A2992 RMK A01 T02420160  RH  060%=      5-min Rain = 0
KME1 050749Z 20005KT 24/16 A2992 RMK A01 T02430160  RH  060%=      5-min Rain = 0
KME1 050750Z 20005KT 24/16 A2992 RMK A01 T02440159  RH  059%=      5-min Rain = 0
KME1 050751Z 20005KT 25/16 A2992 RMK A01 T02450159  RH  059%=      5-min Rain = 0
KME1 050752Z 20005KT 25/16 A2993 RMK A01 T02460159  RH  058%=      5-min Rain = 0
KME1 050753Z 19005KT 25/16 A2993 RMK A01 T02470159  RH  058%=      5-min Rain = 0
KME1 050754Z 20005KT 25/16 A2993 RMK A01 T02480158  RH  058%=      5-min Rain = 0
KME1 050755Z 19005KT 25/16 A2993 RMK A01 T02490158  RH  057%=      5-min Rain = 0
KME1 050756Z 19005KT 25/16 A2993 RMK A01 T02500158  RH  056%=      5-min Rain = 0
KME1 050757Z 19006KT 25/16 A2993 RMK A01 T02510158  RH  056%=      5-min Rain = 0
KME1 050758Z 19005KT 25/16 A2992 RMK A01 T02520158  RH  056%=      5-min Rain = 0
KME1 050759Z 19006KT 25/16 A2992 RMK A01 T02530157  RH  055%=      5-min Rain = 0
KME1 050800Z 19004KT 25/16 A2992 RMK A01 T02530157  RH  055%=      5-min Rain = 0
KME1 050801Z 19005KT 25/16 A2992 RMK A01 T02530158  RH  055%=      5-min Rain = 0
KME1 050802Z 19004KT 25/16 A2992 RMK A01 T02530158  RH  055%=      5-min Rain = 0
KME1 050803Z 20004KT 25/16 A2992 RMK A01 T02530158  RH  055%=      5-min Rain = 0
KME1 050804Z 20004KT 25/16 A2993 RMK A01 T02530158  RH  055%=      5-min Rain = 0
KME1 050805Z 20004KT 25/16 A2993 RMK A01 T02520157  RH  056%=      5-min Rain = 0
KME1 050806Z 20004KT 25/16 A2993 RMK A01 T02520157  RH  056%=      5-min Rain = 0
KME1 050807Z 20004KT 25/16 A2993 RMK A01 T02510158  RH  056%=      5-min Rain = 0
KME1 050808Z 20004KT 25/16 A2993 RMK A01 T02500158  RH  057%=      5-min Rain = 0
KME1 050809Z 20004KT 25/16 A2993 RMK A01 T02490158  RH  057%=      5-min Rain = 0
KME1 050810Z 20003KT 25/16 A2993 RMK A01 T02480159  RH  058%=      5-min Rain = 0
KME1 050811Z 20004KT 25/16 A2993 RMK A01 T02470158  RH  058%=      5-min Rain = 0
KME1 050812Z 19004KT 25/16 A2993 RMK A01 T02460157  RH  057%=      5-min Rain = 0
KME1 050813Z 19004KT 25/16 A2993 RMK A01 T02460158  RH  058%=      5-min Rain = 0
KME1 050814Z 20004KT 25/16 A2993 RMK A01 T02460157  RH  058%=      5-min Rain = 0
KME1 050815Z 20005KT 25/16 A2993 RMK A01 T02470157  RH  057%=      5-min Rain = 0
KME1 050816Z 20005KT 25/16 A2993 RMK A01 T02470158  RH  058%=      5-min Rain = 0
KME1 050817Z 20006KT 25/16 A2993 RMK A01 T02470157  RH  057%=      5-min Rain = 0
KME1 050818Z 19006KT 25/16 A2993 RMK A01 T02470157  RH  057%=      5-min Rain = 0
KME1 050819Z 20005KT 25/16 A2993 RMK A01 T02480158  RH  057%=      5-min Rain = 0
KME1 050820Z 20005KT 25/16 A2993 RMK A01 T02490158  RH  057%=      5-min Rain = 0
KME1 050821Z 20004KT 25/16 A2993 RMK A01 T02490158  RH  057%=      5-min Rain = 0
KME1 050822Z 20004KT 25/16 A2993 RMK A01 T02490158  RH  057%=      5-min Rain = 0
KME1 050823Z 20004KT 25/16 A2993 RMK A01 T02490157  RH  057%=      5-min Rain = 0
KME1 050824Z 19004KT 25/16 A2993 RMK A01 T02490159  RH  057%=      5-min Rain = 0
KME1 050825Z 19003KT 25/16 A2993 RMK A01 T02480159  RH  058%=      5-min Rain = 0
KME1 050826Z 20004KT 25/16 A2993 RMK A01 T02470158  RH  058%=      5-min Rain = 0
KME1 050827Z 19004KT 25/16 A2993 RMK A01 T02470158  RH  058%=      5-min Rain = 0
KME1 050828Z 20004KT 25/16 A2993 RMK A01 T02470157  RH  057%=      5-min Rain = 0
KME1 050829Z 19004KT 25/16 A2993 RMK A01 T02470158  RH  058%=      5-min Rain = 0
KME1 050830Z 19004KT 25/16 A2993 RMK A01 T02470158  RH  057%=      5-min Rain = 0
KME1 050831Z 19004KT 25/16 A2993 RMK A01 T02470158  RH  057%=      5-min Rain = 0
KME1 050832Z 19004KT 25/16 A2993 RMK A01 T02470158  RH  058%=      5-min Rain = 0
KME1 050833Z 19004KT 25/16 A2993 RMK A01 T02470158  RH  058%=      5-min Rain = 0
KME1 050834Z 20004KT 25/16 A2993 RMK A01 T02470159  RH  058%=      5-min Rain = 0
KME1 050835Z 20004KT 25/16 A2993 RMK A01 T02470159  RH  058%=      5-min Rain = 0
KME1 050836Z 20004KT 25/16 A2993 RMK A01 T02460158  RH  058%=      5-min Rain = 0
KME1 050837Z 20004KT 25/16 A2993 RMK A01 T02460159  RH  059%=      5-min Rain = 0
KME1 050838Z 20004KT 25/16 A2993 RMK A01 T02450159  RH  059%=      5-min Rain = 0
KME1 050839Z 20004KT 24/16 A2994 RMK A01 T02440159  RH  059%=      5-min Rain = 0
KME1 050840Z 20004KT 24/16 A2994 RMK A01 T02440159  RH  059%=      5-min Rain = 0
KME1 050841Z 21004KT 24/16 A2994 RMK A01 T02430159  RH  060%=      5-min Rain = 0
KME1 050842Z 21004KT 24/16 A2994 RMK A01 T02430159  RH  060%=      5-min Rain = 0
KME1 050843Z 21005KT 24/16 A2994 RMK A01 T02430160  RH  060%=      5-min Rain = 0
KME1 050844Z 21005KT 24/16 A2994 RMK A01 T02420160  RH  060%=      5-min Rain = 0
KME1 050845Z 20005KT 24/16 A2994 RMK A01 T02420160  RH  060%=      5-min Rain = 0
KME1 050846Z 20005KT 24/16 A2994 RMK A01 T02420160  RH  060%=      5-min Rain = 0
KME1 050847Z 20005KT 24/16 A2994 RMK A01 T02420160  RH  060%=      5-min Rain = 0
KME1 050848Z 20004KT 24/16 A2994 RMK A01 T02420159  RH  060%=      5-min Rain = 0
KME1 050849Z 20004KT 24/16 A2994 RMK A01 T02430159  RH  059%=      5-min Rain = 0
KME1 050850Z 20005KT 24/16 A2994 RMK A01 T02430159  RH  059%=      5-min Rain = 0
KME1 050851Z 20004KT 24/16 A2994 RMK A01 T02440159  RH  059%=      5-min Rain = 0
KME1 050852Z 20005KT 24/16 A2994 RMK A01 T02440159  RH  059%=      5-min Rain = 0
KME1 050853Z 20005KT 24/16 A2994 RMK A01 T02440159  RH  059%=      5-min Rain = 0
KME1 050854Z 20005KT 25/16 A2994 RMK A01 T02450159  RH  059%=      5-min Rain = 0
KME1 050855Z 21005KT 25/16 A2994 RMK A01 T02450159  RH  059%=      5-min Rain = 0
KME1 050856Z 21005KT 25/16 A2994 RMK A01 T02450159  RH  059%=      5-min Rain = 0
KME1 050857Z 21006KT 24/16 A2994 RMK A01 T02440160  RH  059%=      5-min Rain = 0
KME1 050858Z 21005KT 24/16 A2994 RMK A01 T02440160  RH  059%=      5-min Rain = 0
KME1 050859Z 21005KT 24/16 A2994 RMK A01 T02440160  RH  059%=      5-min Rain = 0
KME1 050900Z 21005KT 24/16 A2994 RMK A01 T02440160  RH  059%=      5-min Rain = 0
KME1 050901Z 21004KT 24/16 A2994 RMK A01 T02440160  RH  060%=      5-min Rain = 0
KME1 050902Z 20005KT 24/16 A2994 RMK A01 T02430160  RH  060%=      5-min Rain = 0
KME1 050903Z 21005KT 24/16 A2994 RMK A01 T02430160  RH  060%=      5-min Rain = 0
KME1 050904Z 20005KT 24/16 A2994 RMK A01 T02430160  RH  060%=      5-min Rain = 0
KME1 050905Z 21005KT 24/16 A2994 RMK A01 T02430160  RH  060%=      5-min Rain = 0
KME1 050906Z 21005KT 24/16 A2994 RMK A01 T02430160  RH  060%=      5-min Rain = 0
KME1 050907Z 20005KT 24/16 A2994 RMK A01 T02420160  RH  060%=      5-min Rain = 0
KME1 050908Z 21005KT 24/16 A2994 RMK A01 T02420160  RH  060%=      5-min Rain = 0
KME1 050909Z 21005KT 24/16 A2994 RMK A01 T02430161  RH  060%=      5-min Rain = 0
KME1 050910Z 21004KT 24/16 A2994 RMK A01 T02430160  RH  060%=      5-min Rain = 0
KME1 050911Z 21004KT 24/16 A2994 RMK A01 T02420160  RH  060%=      5-min Rain = 0
KME1 050912Z 21005KT 24/16 A2994 RMK A01 T02430160  RH  060%=      5-min Rain = 0
KME1 050913Z 21005KT 24/16 A2994 RMK A01 T02430160  RH  060%=      5-min Rain = 0
KME1 050914Z 20005KT 24/16 A2994 RMK A01 T02430160  RH  060%=      5-min Rain = 0
KME1 050915Z 20005KT 24/16 A2994 RMK A01 T02430160  RH  060%=      5-min Rain = 0
KME1 050916Z 20005KT 24/16 A2994 RMK A01 T02440160  RH  059%=      5-min Rain = 0
KME1 050917Z 20005KT 25/16 A2994 RMK A01 T02450160  RH  059%=      5-min Rain = 0
KME1 050918Z 20005KT 25/16 A2994 RMK A01 T02450160  RH  059%=      5-min Rain = 0
KME1 050919Z 20004KT 25/16 A2994 RMK A01 T02450159  RH  059%=      5-min Rain = 0
KME1 050920Z 20004KT 25/16 A2994 RMK A01 T02460160  RH  059%=      5-min Rain = 0
KME1 050921Z 21005KT 25/16 A2994 RMK A01 T02460160  RH  059%=      5-min Rain = 0
KME1 050922Z 21005KT 25/16 A2994 RMK A01 T02460160  RH  059%=      5-min Rain = 0
KME1 050923Z 21005KT 25/16 A2994 RMK A01 T02450161  RH  059%=      5-min Rain = 0
KME1 050924Z 20004KT 25/16 A2994 RMK A01 T02450161  RH  059%=      5-min Rain = 0
KME1 050925Z 21005KT 25/16 A2994 RMK A01 T02450161  RH  060%=      5-min Rain = 0
KME1 050926Z 21005KT 24/16 A2994 RMK A01 T02440161  RH  060%=      5-min Rain = 0
KME1 050927Z 20005KT 24/16 A2994 RMK A01 T02440161  RH  060%=      5-min Rain = 0
KME1 050928Z 21006KT 24/16 A2994 RMK A01 T02440161  RH  060%=      5-min Rain = 0
KME1 050929Z 21006KT 24/16 A2994 RMK A01 T02430161  RH  060%=      5-min Rain = 0
KME1 050930Z 21006KT 24/16 A2994 RMK A01 T02430161  RH  060%=      5-min Rain = 0
KME1 050931Z 21006KT 24/16 A2994 RMK A01 T02430161  RH  060%=      5-min Rain = 0
KME1 050932Z 20006KT 24/16 A2994 RMK A01 T02430161  RH  060%=      5-min Rain = 0
KME1 050933Z 21006KT 24/16 A2994 RMK A01 T02440161  RH  060%=      5-min Rain = 0
KME1 050934Z 20006KT 24/16 A2994 RMK A01 T02440160  RH  060%=      5-min Rain = 0
KME1 050935Z 20006KT 24/16 A2994 RMK A01 T02440161  RH  060%=      5-min Rain = 0
KME1 050936Z 20007KT 24/16 A2994 RMK A01 T02440160  RH  059%=      5-min Rain = 0
KME1 050937Z 20006KT 25/16 A2994 RMK A01 T02450161  RH  059%=      5-min Rain = 0
KME1 050938Z 20006KT 25/16 A2994 RMK A01 T02450160  RH  059%=      5-min Rain = 0
KME1 050939Z 20006KT 25/16 A2994 RMK A01 T02450161  RH  059%=      5-min Rain = 0
KME1 050940Z 20006KT 25/16 A2994 RMK A01 T02450160  RH  059%=      5-min Rain = 0
KME1 050941Z 20006KT 25/16 A2994 RMK A01 T02450160  RH  059%=      5-min Rain = 0
KME1 050942Z 19006KT 25/16 A2994 RMK A01 T02450161  RH  059%=      5-min Rain = 0
KME1 050943Z 19005KT 25/16 A2994 RMK A01 T02450161  RH  059%=      5-min Rain = 0
KME1 050944Z 20005KT 25/16 A2994 RMK A01 T02450161  RH  060%=      5-min Rain = 0
KME1 050945Z 20005KT 24/16 A2994 RMK A01 T02440161  RH  060%=      5-min Rain = 0
KME1 050946Z 20006KT 24/16 A2994 RMK A01 T02440161  RH  060%=      5-min Rain = 0
KME1 050947Z 20006KT 24/16 A2994 RMK A01 T02440161  RH  060%=      5-min Rain = 0
KME1 050948Z 20006KT 24/16 A2994 RMK A01 T02440161  RH  060%=      5-min Rain = 0
KME1 050949Z 20006KT 24/16 A2994 RMK A01 T02440161  RH  060%=      5-min Rain = 0
KME1 050950Z 20006KT 24/16 A2994 RMK A01 T02430161  RH  060%=      5-min Rain = 0
KME1 050951Z 20006KT 24/16 A2994 RMK A01 T02430161  RH  060%=      5-min Rain = 0
KME1 050952Z 20006KT 24/16 A2994 RMK A01 T02420161  RH  060%=      5-min Rain = 0
KME1 050953Z 20006KT 24/16 A2994 RMK A01 T02420161  RH  061%=      5-min Rain = 0
KME1 050954Z 20006KT 24/16 A2994 RMK A01 T02420161  RH  061%=      5-min Rain = 0
KME1 050955Z 20006KT 24/16 A2994 RMK A01 T02420161  RH  061%=      5-min Rain = 0
KME1 050956Z 20006KT 24/16 A2994 RMK A01 T02420162  RH  061%=      5-min Rain = 0
KME1 050957Z 20006KT 24/16 A2994 RMK A01 T02420162  RH  061%=      5-min Rain = 0
KME1 050958Z 20006KT 24/16 A2994 RMK A01 T02410160  RH  060%=      5-min Rain = 0
KME1 050959Z 20006KT 24/16 A2994 RMK A01 T02420161  RH  060%=      5-min Rain = 0
KME1 051000Z 20005KT 24/16 A2994 RMK A01 T02420161  RH  061%=      5-min Rain = 0
KME1 051001Z 20005KT 24/16 A2994 RMK A01 T02420162  RH  061%=      5-min Rain = 0
KME1 051002Z 21006KT 24/16 A2994 RMK A01 T02420161  RH  061%=      5-min Rain = 0
KME1 051003Z 20005KT 24/16 A2994 RMK A01 T02410161  RH  061%=      5-min Rain = 0
KME1 051004Z 20005KT 24/16 A2994 RMK A01 T02410162  RH  061%=      5-min Rain = 0
KME1 051005Z 20005KT 24/16 A2994 RMK A01 T02410162  RH  061%=      5-min Rain = 0
KME1 051006Z 21005KT 24/16 A2994 RMK A01 T02410162  RH  061%=      5-min Rain = 0
KME1 051007Z 20006KT 24/16 A2994 RMK A01 T02410162  RH  061%=      5-min Rain = 0
KME1 051008Z 21005KT 24/16 A2994 RMK A01 T02410162  RH  061%=      5-min Rain = 0
KME1 051009Z 20005KT 24/16 A2994 RMK A01 T02410162  RH  061%=      5-min Rain = 0
KME1 051010Z 20005KT 24/16 A2994 RMK A01 T02410161  RH  061%=      5-min Rain = 0
KME1 051011Z 20005KT 24/16 A2994 RMK A01 T02410162  RH  061%=      5-min Rain = 0
KME1 051012Z 20005KT 24/16 A2994 RMK A01 T02410162  RH  061%=      5-min Rain = 0
KME1 051013Z 20005KT 24/16 A2994 RMK A01 T02410161  RH  061%=      5-min Rain = 0
KME1 051014Z 20005KT 24/16 A2994 RMK A01 T02410162  RH  061%=      5-min Rain = 0
KME1 051015Z 20005KT 24/16 A2994 RMK A01 T02410162  RH  061%=      5-min Rain = 0
KME1 051016Z 20005KT 24/16 A2994 RMK A01 T02410162  RH  061%=      5-min Rain = 0
KME1 051017Z 20005KT 24/16 A2994 RMK A01 T02410163  RH  061%=      5-min Rain = 0
KME1 051018Z 20005KT 24/16 A2994 RMK A01 T02410162  RH  061%=      5-min Rain = 0
KME1 051019Z 20005KT 24/16 A2994 RMK A01 T02410162  RH  061%=      5-min Rain = 0
KME1 051020Z 20005KT 24/16 A2994 RMK A01 T02420162  RH  061%=      5-min Rain = 0
KME1 051021Z 19005KT 24/16 A2994 RMK A01 T02420162  RH  061%=      5-min Rain = 0
KME1 051022Z 19004KT 24/16 A2994 RMK A01 T02420163  RH  061%=      5-min Rain = 0
KME1 051023Z 19005KT 24/16 A2994 RMK A01 T02420163  RH  061%=      5-min Rain = 0
KME1 051024Z 19005KT 24/16 A2994 RMK A01 T02420163  RH  062%=      5-min Rain = 0
KME1 051025Z 19005KT 24/16 A2994 RMK A01 T02420163  RH  062%=      5-min Rain = 0
KME1 051026Z 19005KT 24/16 A2994 RMK A01 T02410163  RH  062%=      5-min Rain = 0
KME1 051027Z 19006KT 24/16 A2994 RMK A01 T02410163  RH  062%=      5-min Rain = 0
KME1 051028Z 19006KT 24/16 A2994 RMK A01 T02410163  RH  062%=      5-min Rain = 0
KME1 051029Z 20005KT 24/16 A2994 RMK A01 T02410163  RH  062%=      5-min Rain = 0
KME1 051030Z 20005KT 24/16 A2994 RMK A01 T02410163  RH  062%=      5-min Rain = 0
KME1 051031Z 19005KT 24/16 A2994 RMK A01 T02410163  RH  061%=      5-min Rain = 0
KME1 051032Z 20005KT 24/16 A2994 RMK A01 T02420162  RH  061%=      5-min Rain = 0
KME1 051033Z 20005KT 24/16 A2994 RMK A01 T02430163  RH  061%=      5-min Rain = 0
KME1 051034Z 20005KT 24/16 A2994 RMK A01 T02430163  RH  061%=      5-min Rain = 0
KME1 051035Z 20005KT 24/16 A2994 RMK A01 T02440163  RH  061%=      5-min Rain = 0
KME1 051036Z 20005KT 24/16 A2994 RMK A01 T02440163  RH  060%=      5-min Rain = 0
KME1 051037Z 20005KT 24/16 A2994 RMK A01 T02440163  RH  060%=      5-min Rain = 0
KME1 051038Z 20005KT 25/16 A2994 RMK A01 T02450163  RH  060%=      5-min Rain = 0
KME1 051039Z 20006KT 25/16 A2994 RMK A01 T02450162  RH  060%=      5-min Rain = 0
KME1 051040Z 20005KT 25/16 A2994 RMK A01 T02460163  RH  060%=      5-min Rain = 0
KME1 051041Z 20006KT 25/16 A2994 RMK A01 T02460163  RH  060%=      5-min Rain = 0
KME1 051042Z 20006KT 25/16 A2994 RMK A01 T02460162  RH  060%=      5-min Rain = 0
KME1 051043Z 20005KT 25/16 A2994 RMK A01 T02470163  RH  059%=      5-min Rain = 0
KME1 051044Z 20005KT 25/16 A2994 RMK A01 T02470163  RH  060%=      5-min Rain = 0
KME1 051045Z 20006KT 25/16 A2994 RMK A01 T02470163  RH  060%=      5-min Rain = 0
KME1 051046Z 20006KT 25/16 A2994 RMK A01 T02470163  RH  059%=      5-min Rain = 0
KME1 051047Z 20006KT 25/16 A2994 RMK A01 T02470163  RH  059%=      5-min Rain = 0
KME1 051048Z 20007KT 25/16 A2994 RMK A01 T02470162  RH  059%=      5-min Rain = 0
KME1 051049Z 20008KT 25/16 A2994 RMK A01 T02480163  RH  059%=      5-min Rain = 0
KME1 051050Z 20006KT 25/16 A2994 RMK A01 T02480163  RH  059%=      5-min Rain = 0
KME1 051051Z 20007KT 25/16 A2994 RMK A01 T02480163  RH  059%=      5-min Rain = 0
KME1 051052Z 20006KT 25/16 A2994 RMK A01 T02480163  RH  059%=      5-min Rain = 0
KME1 051053Z 20007KT 25/16 A2994 RMK A01 T02470163  RH  059%=      5-min Rain = 0
KME1 051054Z 19006KT 25/16 A2994 RMK A01 T02470162  RH  059%=      5-min Rain = 0
KME1 051055Z 19007KT 25/16 A2994 RMK A01 T02480163  RH  059%=      5-min Rain = 0
KME1 051056Z 19007KT 25/16 A2994 RMK A01 T02470164  RH  060%=      5-min Rain = 0
KME1 051057Z 19007KT 25/16 A2994 RMK A01 T02470164  RH  060%=      5-min Rain = 0
KME1 051058Z 19007KT 25/16 A2994 RMK A01 T02460164  RH  060%=      5-min Rain = 0
KME1 051059Z 19007KT 25/16 A2994 RMK A01 T02460164  RH  060%=      5-min Rain = 0
KME1 051100Z 19007KT 25/16 A2994 RMK A01 T02450163  RH  060%=      5-min Rain = 0
KME1 051101Z 19007KT 25/16 A2994 RMK A01 T02450163  RH  060%=      5-min Rain = 0
KME1 051102Z 19008KT 25/16 A2994 RMK A01 T02450163  RH  060%=      5-min Rain = 0
KME1 051103Z 19007KT 25/16 A2993 RMK A01 T02450163  RH  060%=      5-min Rain = 0
KME1 051104Z 19008KT 25/16 A2993 RMK A01 T02450163  RH  060%=      5-min Rain = 0
KME1 051105Z 20008KT 25/16 A2993 RMK A01 T02450163  RH  060%=      5-min Rain = 0
KME1 051106Z 19009KT 25/16 A2993 RMK A01 T02450162  RH  060%=      5-min Rain = 0
KME1 051107Z 20008KT 25/16 A2993 RMK A01 T02450163  RH  060%=      5-min Rain = 0
KME1 051108Z 19008KT 25/16 A2993 RMK A01 T02450163  RH  060%=      5-min Rain = 0
KME1 051109Z 19007KT 25/16 A2993 RMK A01 T02450164  RH  061%=      5-min Rain = 0
KME1 051110Z 19007KT 24/16 A2993 RMK A01 T02440164  RH  061%=      5-min Rain = 0
KME1 051111Z 19008KT 24/16 A2993 RMK A01 T02440163  RH  061%=      5-min Rain = 0
KME1 051112Z 20008KT 24/16 A2993 RMK A01 T02440163  RH  060%=      5-min Rain = 0
KME1 051113Z 20007KT 25/16 A2993 RMK A01 T02450163  RH  060%=      5-min Rain = 0
KME1 051114Z 20008KT 24/16 A2993 RMK A01 T02440164  RH  061%=      5-min Rain = 0
KME1 051115Z 20007KT 24/16 A2993 RMK A01 T02440163  RH  061%=      5-min Rain = 0
KME1 051116Z 19008KT 24/16 A2993 RMK A01 T02430163  RH  061%=      5-min Rain = 0
KME1 051117Z 20006KT 24/16 A2993 RMK A01 T02440164  RH  061%=      5-min Rain = 0
KME1 051118Z 20007KT 24/16 A2994 RMK A01 T02430163  RH  061%=      5-min Rain = 0
KME1 051119Z 20007KT 24/16 A2994 RMK A01 T02430163  RH  061%=      5-min Rain = 0
KME1 051120Z 20007KT 24/16 A2994 RMK A01 T02430163  RH  061%=      5-min Rain = 0
KME1 051121Z 20007KT 24/16 A2994 RMK A01 T02430164  RH  061%=      5-min Rain = 0
KME1 051122Z 19006KT 24/16 A2994 RMK A01 T02420164  RH  061%=      5-min Rain = 0
KME1 051123Z 20006KT 24/16 A2994 RMK A01 T02420164  RH  062%=      5-min Rain = 0
KME1 051124Z 19006KT 24/16 A2994 RMK A01 T02420164  RH  062%=      5-min Rain = 0
KME1 051125Z 19006KT 24/16 A2994 RMK A01 T02420164  RH  062%=      5-min Rain = 0
KME1 051126Z 19006KT 24/16 A2994 RMK A01 T02410164  RH  062%=      5-min Rain = 0
KME1 051127Z 19007KT 24/16 A2994 RMK A01 T02410164  RH  062%=      5-min Rain = 0
KME1 051128Z 19006KT 24/16 A2994 RMK A01 T02400164  RH  062%=      5-min Rain = 0
KME1 051129Z 19007KT 24/16 A2994 RMK A01 T02400164  RH  062%=      5-min Rain = 0
KME1 051130Z 19008KT 24/16 A2994 RMK A01 T02400163  RH  062%=      5-min Rain = 0
KME1 051131Z 20007KT 24/16 A2994 RMK A01 T02400164  RH  063%=      5-min Rain = 0
KME1 051132Z 19007KT 24/16 A2994 RMK A01 T02390164  RH  063%=      5-min Rain = 0
KME1 051133Z 20008KT 24/16 A2994 RMK A01 T02390164  RH  063%=      5-min Rain = 0
KME1 051134Z 20007KT 24/16 A2994 RMK A01 T02390164  RH  063%=      5-min Rain = 0
KME1 051135Z 20006KT 24/16 A2994 RMK A01 T02390164  RH  063%=      5-min Rain = 0
KME1 051136Z 19008KT 24/16 A2994 RMK A01 T02380164  RH  063%=      5-min Rain = 0
KME1 051137Z 20007KT 24/16 A2994 RMK A01 T02380163  RH  063%=      5-min Rain = 0
KME1 051138Z 20007KT 24/16 A2994 RMK A01 T02380164  RH  063%=      5-min Rain = 0
KME1 051139Z 20007KT 24/16 A2994 RMK A01 T02380164  RH  063%=      5-min Rain = 0
KME1 051140Z 19007KT 24/16 A2994 RMK A01 T02380164  RH  063%=      5-min Rain = 0
KME1 051141Z 20007KT 24/16 A2994 RMK A01 T02390164  RH  063%=      5-min Rain = 0
KME1 051142Z 19007KT 24/16 A2994 RMK A01 T02390164  RH  063%=      5-min Rain = 0
KME1 051143Z 19007KT 24/16 A2994 RMK A01 T02390164  RH  063%=      5-min Rain = 0
KME1 051144Z 19007KT 24/17 A2994 RMK A01 T02390165  RH  063%=      5-min Rain = 0
KME1 051145Z 20007KT 24/17 A2993 RMK A01 T02390165  RH  063%=      5-min Rain = 0
KME1 051146Z 20008KT 24/16 A2994 RMK A01 T02380164  RH  063%=      5-min Rain = 0
KME1 051147Z 20008KT 24/16 A2994 RMK A01 T02380164  RH  063%=      5-min Rain = 0
KME1 051148Z 20007KT 24/16 A2994 RMK A01 T02390164  RH  063%=      5-min Rain = 0
KME1 051149Z 20008KT 24/16 A2994 RMK A01 T02390164  RH  063%=      5-min Rain = 0
KME1 051150Z 20007KT 24/16 A2994 RMK A01 T02390164  RH  063%=      5-min Rain = 0
KME1 051151Z 20007KT 24/16 A2994 RMK A01 T02390164  RH  063%=      5-min Rain = 0
KME1 051152Z 20007KT 24/16 A2994 RMK A01 T02390164  RH  063%=      5-min Rain = 0
KME1 051153Z 20006KT 24/16 A2994 RMK A01 T02390164  RH  063%=      5-min Rain = 0
KME1 051154Z 20006KT 24/16 A2994 RMK A01 T02390164  RH  063%=      5-min Rain = 0
KME1 051155Z 20008KT 24/16 A2994 RMK A01 T02390164  RH  063%=      5-min Rain = 0
KME1 051156Z 20006KT 24/16 A2994 RMK A01 T02400164  RH  063%=      5-min Rain = 0
KME1 051157Z 20007KT 24/17 A2994 RMK A01 T02400165  RH  063%=      5-min Rain = 0
KME1 051158Z 20007KT 24/17 A2994 RMK A01 T02400165  RH  063%=      5-min Rain = 0
KME1 051159Z 20007KT 24/17 A2994 RMK A01 T02400165  RH  063%=      5-min Rain = 0
KME1 051200Z 20007KT 24/17 A2994 RMK A01 T02400165  RH  063%=      5-min Rain = 0
KME1 051201Z 20008KT 24/17 A2994 RMK A01 T02400165  RH  063%=      5-min Rain = 0
KME1 051202Z 20007KT 24/17 A2994 RMK A01 T02400165  RH  063%=      5-min Rain = 0
KME1 051203Z 20007KT 24/17 A2994 RMK A01 T02400165  RH  063%=      5-min Rain = 0
KME1 051204Z 20007KT 24/17 A2994 RMK A01 T02400165  RH  063%=      5-min Rain = 0
KME1 051205Z 20008KT 24/17 A2994 RMK A01 T02400165  RH  063%=      5-min Rain = 0
KME1 051206Z 20007KT 24/17 A2994 RMK A01 T02400165  RH  063%=      5-min Rain = 0
KME1 051207Z 20008KT 24/17 A2994 RMK A01 T02400166  RH  063%=      5-min Rain = 0
KME1 051208Z 20007KT 24/17 A2994 RMK A01 T02400165  RH  063%=      5-min Rain = 0
KME1 051209Z 20008KT 24/17 A2994 RMK A01 T02400166  RH  063%=      5-min Rain = 0
KME1 051210Z 20007KT 24/17 A2994 RMK A01 T02400166  RH  063%=      5-min Rain = 0
KME1 051211Z 20007KT 24/17 A2994 RMK A01 T02400166  RH  063%=      5-min Rain = 0
KME1 051212Z 20007KT 24/17 A2994 RMK A01 T02400166  RH  063%=      5-min Rain = 0
KME1 051213Z 20007KT 24/17 A2994 RMK A01 T02400166  RH  063%=      5-min Rain = 0
KME1 051214Z 19007KT 24/17 A2994 RMK A01 T02400166  RH  063%=      5-min Rain = 0
KME1 051215Z 19007KT 24/17 A2994 RMK A01 T02400166  RH  063%=      5-min Rain = 0
KME1 051216Z 20007KT 24/17 A2994 RMK A01 T02400166  RH  063%=      5-min Rain = 0
KME1 051217Z 20006KT 24/17 A2995 RMK A01 T02400166  RH  063%=      5-min Rain = 0
KME1 051218Z 21007KT 24/17 A2995 RMK A01 T02400166  RH  063%=      5-min Rain = 0
KME1 051219Z 21006KT 24/17 A2995 RMK A01 T02400167  RH  064%=      5-min Rain = 0
KME1 051220Z 21007KT 24/17 A2995 RMK A01 T02400167  RH  064%=      5-min Rain = 0
KME1 051221Z 21008KT 24/17 A2995 RMK A01 T02400167  RH  064%=      5-min Rain = 0
KME1 051222Z 21007KT 24/17 A2995 RMK A01 T02400167  RH  063%=      5-min Rain = 0
KME1 051223Z 21007KT 24/17 A2995 RMK A01 T02410167  RH  063%=      5-min Rain = 0
KME1 051224Z 20008KT 24/17 A2995 RMK A01 T02410167  RH  063%=      5-min Rain = 0
KME1 051225Z 20008KT 24/17 A2995 RMK A01 T02410167  RH  063%=      5-min Rain = 0
KME1 051226Z 20008KT 24/17 A2995 RMK A01 T02410167  RH  063%=      5-min Rain = 0
KME1 051227Z 20008KT 24/17 A2994 RMK A01 T02420167  RH  063%=      5-min Rain = 0
KME1 051228Z 20008KT 24/17 A2994 RMK A01 T02420167  RH  063%=      5-min Rain = 0
KME1 051229Z 20006KT 24/17 A2994 RMK A01 T02420167  RH  063%=      5-min Rain = 0
KME1 051230Z 20007KT 24/17 A2994 RMK A01 T02420167  RH  063%=      5-min Rain = 0
KME1 051231Z 19007KT 24/17 A2994 RMK A01 T02420168  RH  063%=      5-min Rain = 0
KME1 051232Z 20007KT 24/17 A2995 RMK A01 T02420168  RH  063%=      5-min Rain = 0
KME1 051233Z 19006KT 24/17 A2995 RMK A01 T02420168  RH  063%=      5-min Rain = 0
KME1 051234Z 20006KT 24/17 A2995 RMK A01 T02420168  RH  063%=      5-min Rain = 0
KME1 051235Z 20006KT 24/17 A2995 RMK A01 T02420168  RH  063%=      5-min Rain = 0
KME1 051236Z 20006KT 24/17 A2995 RMK A01 T02420168  RH  063%=      5-min Rain = 0
KME1 051237Z 20005KT 24/17 A2995 RMK A01 T02420168  RH  063%=      5-min Rain = 0
KME1 051238Z 21003KT 24/17 A2995 RMK A01 T02420168  RH  063%=      5-min Rain = 0
KME1 051239Z 21002KT 24/17 A2996 RMK A01 T02420168  RH  063%=      5-min Rain = 0
KME1 051240Z 33001KT 24/17 A2996 RMK A01 T02420168  RH  063%=      5-min Rain = 0
KME1 051241Z 01006KT 24/17 A2997 RMK A01 T02420168  RH  063%=      5-min Rain = 0
KME1 051242Z 01008KT 24/17 A2997 RMK A01 T02420170  RH  064%=      5-min Rain = 0
KME1 051243Z 36008KT 24/17 A2997 RMK A01 T02420171  RH  064%=      5-min Rain = 0
KME1 051244Z 36007KT 24/17 A2997 RMK A01 T02410170  RH  064%=      5-min Rain = 0
KME1 051245Z 35006KT 24/17 A2997 RMK A01 T02420170  RH  064%=      5-min Rain = 0
KME1 051246Z 35005KT 24/17 A2997 RMK A01 T02430169  RH  064%=      5-min Rain = 0
KME1 051247Z 34005KT 24/17 A2997 RMK A01 T02440169  RH  063%=      5-min Rain = 0
KME1 051248Z 35006KT 25/17 A2997 RMK A01 T02450169  RH  062%=      5-min Rain = 0
KME1 051249Z 35004KT 25/17 A2997 RMK A01 T02460168  RH  062%=      5-min Rain = 0
KME1 051250Z 33003KT 25/17 A2997 RMK A01 T02480169  RH  061%=      5-min Rain = 0
KME1 051251Z 30002KT 25/17 A2997 RMK A01 T02480169  RH  061%=      5-min Rain = 0
KME1 051252Z 33004KT 25/17 A2997 RMK A01 T02490169  RH  061%=      5-min Rain = 0
KME1 051253Z 29004KT 25/17 A2996 RMK A01 T02490168  RH  061%=      5-min Rain = 0
KME1 051254Z 25009G15KT 25/17 A2996 RMK A01 T02500167  RH  060%=      5-min Rain = 0
KME1 051255Z 25007KT 25/17 A2996 RMK A01 T02530165  RH  058%=      5-min Rain = 0
KME1 051256Z 23006KT 26/17 A2996 RMK A01 T02560167  RH  058%=      5-min Rain = 0
KME1 051257Z 22007KT 26/17 A2997 RMK A01 T02580167  RH  057%=      5-min Rain = 0
KME1 051258Z 18003KT 26/17 A2997 RMK A01 T02580167  RH  057%=      5-min Rain = 0
KME1 051259Z 29001KT 26/17 A2998 RMK A01 T02580167  RH  057%=      5-min Rain = 0
KME1 051300Z 31005KT 26/17 A2998 RMK A01 T02580168  RH  058%=      5-min Rain = 0
KME1 051301Z 01009KT 26/17 A2998 RMK A01 T02590169  RH  057%=      5-min Rain = 0
KME1 051302Z 34011KT 26/17 A2998 RMK A01 T02600169  RH  057%=      5-min Rain = 0
KME1 051303Z 35011KT 26/17 A2998 RMK A01 T02610170  RH  057%=      5-min Rain = 0
KME1 051304Z 34009KT 26/17 A2998 RMK A01 T02610169  RH  057%=      5-min Rain = 0
KME1 051305Z 35009KT 26/17 A2998 RMK A01 T02620170  RH  057%=      5-min Rain = 0
KME1 051306Z 34006KT 26/17 A2998 RMK A01 T02620169  RH  057%=      5-min Rain = 0
KME1 051307Z 33006KT 26/17 A2998 RMK A01 T02620170  RH  057%=      5-min Rain = 0
KME1 051308Z 30003KT 26/17 A2998 RMK A01 T02610170  RH  057%=      5-min Rain = 0
KME1 051309Z 28001KT 26/17 A2998 RMK A01 T02610169  RH  057%=      5-min Rain = 0
KME1 051310Z 20000KT 26/17 A2997 RMK A01 T02610170  RH  057%=      5-min Rain = 0
KME1 051311Z 19004KT 26/17 A2997 RMK A01 T02610169  RH  057%=      5-min Rain = 0
KME1 051312Z 20006KT 26/17 A2997 RMK A01 T02600170  RH  057%=      5-min Rain = 0
KME1 051313Z 20006KT 26/17 A2997 RMK A01 T02600172  RH  058%=      5-min Rain = 0
KME1 051314Z 21004KT 26/17 A2997 RMK A01 T02580171  RH  059%=      5-min Rain = 0
KME1 051315Z 26003KT 26/17 A2997 RMK A01 T02580171  RH  058%=      5-min Rain = 0
KME1 051316Z 32004KT 26/17 A2998 RMK A01 T02600171  RH  058%=      5-min Rain = 0
KME1 051317Z 34007KT 26/17 A2998 RMK A01 T02620173  RH  058%=      5-min Rain = 0
KME1 051318Z 34006KT 26/17 A2998 RMK A01 T02640174  RH  058%=      5-min Rain = 0
KME1 051319Z 34009KT 27/17 A2998 RMK A01 T02660172  RH  056%=      5-min Rain = 0
KME1 051320Z 36008KT 27/17 A2998 RMK A01 T02690171  RH  055%=      5-min Rain = 0
KME1 051321Z 00007KT 27/17 A2998 RMK A01 T02700172  RH  055%=      5-min Rain = 0
KME1 051322Z 01006KT 27/17 A2998 RMK A01 T02710171  RH  054%=      5-min Rain = 0
KME1 051323Z 34006KT 27/17 A2998 RMK A01 T02720172  RH  054%=      5-min Rain = 0
KME1 051324Z 34004KT 27/17 A2998 RMK A01 T02730171  RH  054%=      5-min Rain = 0
KME1 051325Z 31003KT 27/17 A2998 RMK A01 T02730171  RH  054%=      5-min Rain = 0
KME1 051326Z 29003KT 27/17 A2998 RMK A01 T02730169  RH  053%=      5-min Rain = 0
KME1 051327Z 26003KT 27/17 A2998 RMK A01 T02730168  RH  053%=      5-min Rain = 0
KME1 051328Z 25002KT 27/17 A2998 RMK A01 T02730170  RH  054%=      5-min Rain = 0
KME1 051329Z 28003KT 27/17 A2998 RMK A01 T02720170  RH  054%=      5-min Rain = 0
KME1 051330Z 28003KT 27/17 A2998 RMK A01 T02720168  RH  053%=      5-min Rain = 0
KME1 051331Z 30003KT 27/17 A2998 RMK A01 T02710168  RH  053%=      5-min Rain = 0
KME1 051332Z 31004KT 27/17 A2998 RMK A01 T02710168  RH  053%=      5-min Rain = 0
KME1 051333Z 34004KT 27/17 A2998 RMK A01 T02720172  RH  055%=      5-min Rain = 0
KME1 051334Z 34005KT 27/17 A2999 RMK A01 T02720174  RH  055%=      5-min Rain = 0
KME1 051335Z 34005KT 27/17 A2999 RMK A01 T02710174  RH  055%=      5-min Rain = 0
KME1 051336Z 34004KT 27/17 A2999 RMK A01 T02710173  RH  055%=      5-min Rain = 0
KME1 051337Z 35004KT 27/17 A2999 RMK A01 T02710172  RH  055%=      5-min Rain = 0
KME1 051338Z 34003KT 27/17 A2999 RMK A01 T02710173  RH  055%=      5-min Rain = 0
KME1 051339Z 34002KT 27/18 A2999 RMK A01 T02710175  RH  056%=      5-min Rain = 0
KME1 051340Z 28001KT 27/18 A2999 RMK A01 T02720176  RH  056%=      5-min Rain = 0
KME1 051341Z 25002KT 27/18 A2999 RMK A01 T02740175  RH  055%=      5-min Rain = 0
KME1 051342Z 26002KT 27/17 A2999 RMK A01 T02740174  RH  054%=      5-min Rain = 0
KME1 051343Z 28001KT 28/18 A2999 RMK A01 T02750177  RH  055%=      5-min Rain = 0
KME1 051344Z 30002KT 28/18 A2999 RMK A01 T02770175  RH  054%=      5-min Rain = 0
KME1 051345Z 32003KT 28/18 A2999 RMK A01 T02770175  RH  054%=      5-min Rain = 0
KME1 051346Z 32003KT 28/18 A2999 RMK A01 T02780175  RH  053%=      5-min Rain = 0
KME1 051347Z 33003KT 28/17 A2999 RMK A01 T02790174  RH  053%=      5-min Rain = 0
KME1 051348Z 35002KT 28/17 A2999 RMK A01 T02800174  RH  053%=      5-min Rain = 0
KME1 051349Z 34004KT 28/17 A2999 RMK A01 T02800172  RH  052%=      5-min Rain = 0
KME1 051350Z 34004KT 28/17 A2999 RMK A01 T02820169  RH  050%=      5-min Rain = 0
KME1 051351Z 33003KT 28/17 A2999 RMK A01 T02830167  RH  050%=      5-min Rain = 0
KME1 051352Z 35002KT 28/17 A2999 RMK A01 T02840166  RH  049%=      5-min Rain = 0
KME1 051353Z 30002KT 29/17 A2999 RMK A01 T02850166  RH  049%=      5-min Rain = 0
KME1 051354Z 30003KT 29/17 A2999 RMK A01 T02850166  RH  048%=      5-min Rain = 0
KME1 051355Z 30004KT 29/17 A2999 RMK A01 T02860167  RH  049%=      5-min Rain = 0
KME1 051356Z 31003KT 29/17 A2999 RMK A01 T02860166  RH  048%=      5-min Rain = 0
KME1 051357Z 31003KT 29/17 A2999 RMK A01 T02870165  RH  048%=      5-min Rain = 0
KME1 051358Z 31004KT 29/17 A2999 RMK A01 T02870165  RH  048%=      5-min Rain = 0
KME1 051359Z 28003KT 29/17 A2999 RMK A01 T02870165  RH  048%=      5-min Rain = 0
KME1 051400Z 29002KT 29/17 A2999 RMK A01 T02870167  RH  048%=      5-min Rain = 0
KME1 051401Z 30003KT 29/17 A2999 RMK A01 T02880167  RH  048%=      5-min Rain = 0
KME1 051402Z 32005KT 29/17 A2999 RMK A01 T02890168  RH  048%=      5-min Rain = 0
KME1 051403Z 33004KT 29/17 A2999 RMK A01 T02900169  RH  048%=      5-min Rain = 0
KME1 051404Z 30004KT 29/17 A2999 RMK A01 T02920170  RH  048%=      5-min Rain = 0
KME1 051405Z 31004KT 29/17 A2999 RMK A01 T02930171  RH  048%=      5-min Rain = 0
KME1 051406Z 31005KT 29/17 A2999 RMK A01 T02940168  RH  046%=      5-min Rain = 0
KME1 051407Z 30005KT 30/17 A2999 RMK A01 T02950167  RH  046%=      5-min Rain = 0
KME1 051408Z 28006KT 29/17 A2999 RMK A01 T02940168  RH  047%=      5-min Rain = 0
KME1 051409Z 28009KT 29/17 A2999 RMK A01 T02940166  RH  046%=      5-min Rain = 0
KME1 051410Z 28006KT 29/17 A2999 RMK A01 T02940166  RH  046%=      5-min Rain = 0
KME1 051411Z 29007KT 29/16 A2999 RMK A01 T02940164  RH  045%=      5-min Rain = 0
KME1 051412Z 29004KT 29/16 A2999 RMK A01 T02940163  RH  045%=      5-min Rain = 0
KME1 051413Z 29005KT 29/16 A2998 RMK A01 T02940164  RH  046%=      5-min Rain = 0
KME1 051414Z 29005KT 29/17 A2998 RMK A01 T02940165  RH  046%=      5-min Rain = 0
KME1 051415Z 28005KT 30/17 A2998 RMK A01 T02970167  RH  046%=      5-min Rain = 0
KME1 051416Z 29007KT 30/17 A2998 RMK A01 T02980166  RH  045%=      5-min Rain = 0
KME1 051417Z 29006KT 30/16 A2999 RMK A01 T02980164  RH  044%=      5-min Rain = 0
KME1 051418Z 29004KT 30/16 A2999 RMK A01 T02970163  RH  045%=      5-min Rain = 0
KME1 051419Z 30004KT 30/17 A2999 RMK A01 T02970165  RH  045%=      5-min Rain = 0
KME1 051420Z 30004KT 30/17 A2999 RMK A01 T02970165  RH  045%=      5-min Rain = 0
KME1 051421Z 33005KT 30/17 A2999 RMK A01 T02980167  RH  045%=      5-min Rain = 0
KME1 051422Z 30005KT 30/17 A2999 RMK A01 T03010165  RH  044%=      5-min Rain = 0
KME1 051423Z 31005KT 30/16 A2999 RMK A01 T03020164  RH  044%=      5-min Rain = 0
KME1 051424Z 31006KT 30/16 A2999 RMK A01 T03020161  RH  043%=      5-min Rain = 0
KME1 051425Z 30006KT 30/16 A2999 RMK A01 T03010161  RH  043%=      5-min Rain = 0
KME1 051426Z 32007KT 30/16 A2999 RMK A01 T03010162  RH  043%=      5-min Rain = 0
KME1 051427Z 33009KT 30/16 A2999 RMK A01 T03010160  RH  043%=      5-min Rain = 0
KME1 051428Z 32007KT 30/16 A2999 RMK A01 T03010161  RH  043%=      5-min Rain = 0
KME1 051429Z 33006KT 30/16 A2999 RMK A01 T03000161  RH  043%=      5-min Rain = 0
KME1 051430Z 31003KT 30/16 A2999 RMK A01 T03000162  RH  043%=      5-min Rain = 0
KME1 051431Z 30004KT 30/16 A2999 RMK A01 T03020164  RH  043%=      5-min Rain = 0
KME1 051432Z 30003KT 30/17 A2999 RMK A01 T03040167  RH  044%=      5-min Rain = 0
KME1 051433Z 31002KT 31/17 A2999 RMK A01 T03060167  RH  043%=      5-min Rain = 0
KME1 051434Z 35004KT 31/16 A2999 RMK A01 T03080164  RH  042%=      5-min Rain = 0
KME1 051435Z 34003KT 31/16 A2999 RMK A01 T03080163  RH  042%=      5-min Rain = 0
KME1 051436Z 35005KT 31/17 A2999 RMK A01 T03080165  RH  042%=      5-min Rain = 0
KME1 051437Z 32006KT 31/17 A2999 RMK A01 T03090165  RH  042%=      5-min Rain = 0
KME1 051438Z 32006KT 31/16 A2999 RMK A01 T03070162  RH  042%=      5-min Rain = 0
KME1 051439Z 33004KT 31/16 A2999 RMK A01 T03050162  RH  042%=      5-min Rain = 0
KME1 051440Z 35003KT 30/16 A2999 RMK A01 T03040162  RH  042%=      5-min Rain = 0
KME1 051441Z 31004KT 30/16 A2999 RMK A01 T03040162  RH  042%=      5-min Rain = 0
KME1 051442Z 27005KT 31/16 A2999 RMK A01 T03050161  RH  042%=      5-min Rain = 0
KME1 051443Z 23002KT 30/16 A2999 RMK A01 T03030161  RH  042%=      5-min Rain = 0
KME1 051444Z 21004KT 30/16 A2999 RMK A01 T03030163  RH  043%=      5-min Rain = 0
KME1 051445Z 17003KT 30/16 A2999 RMK A01 T03030161  RH  042%=      5-min Rain = 0
KME1 051446Z 24003KT 30/16 A2999 RMK A01 T03030164  RH  043%=      5-min Rain = 0
KME1 051447Z 23002KT 30/16 A2999 RMK A01 T03040164  RH  043%=      5-min Rain = 0
KME1 051448Z 29001KT 31/16 A2999 RMK A01 T03050164  RH  043%=      5-min Rain = 0
KME1 051449Z 32004KT 31/17 A2998 RMK A01 T03070168  RH  043%=      5-min Rain = 0
KME1 051450Z 32007KT 31/17 A2998 RMK A01 T03080165  RH  042%=      5-min Rain = 0
KME1 051451Z 33005KT 31/16 A2998 RMK A01 T03070163  RH  042%=      5-min Rain = 0
KME1 051452Z 31005KT 30/16 A2998 RMK A01 T03040162  RH  042%=      5-min Rain = 0
KME1 051453Z 32004KT 30/16 A2998 RMK A01 T03030162  RH  043%=      5-min Rain = 0
KME1 051454Z 29003KT 30/16 A2998 RMK A01 T03030163  RH  043%=      5-min Rain = 0
KME1 051455Z 27003KT 30/16 A2998 RMK A01 T03030163  RH  043%=      5-min Rain = 0
KME1 051456Z 29003KT 30/16 A2998 RMK A01 T03030162  RH  043%=      5-min Rain = 0
KME1 051457Z 29002KT 30/16 A2998 RMK A01 T03040162  RH  042%=      5-min Rain = 0
KME1 051458Z 30001KT 30/16 A2998 RMK A01 T03040162  RH  042%=      5-min Rain = 0
KME1 051459Z 29001KT 30/16 A2998 RMK A01 T03040160  RH  042%=      5-min Rain = 0
KME1 051500Z 32001KT 31/16 A2998 RMK A01 T03050161  RH  042%=      5-min Rain = 0
KME1 051501Z 08000KT 31/16 A2998 RMK A01 T03050161  RH  042%=      5-min Rain = 0
KME1 051502Z 09001KT 31/17 A2998 RMK A01 T03060165  RH  043%=      5-min Rain = 0
KME1 051503Z 05001KT 31/17 A2998 RMK A01 T03090165  RH  042%=      5-min Rain = 0
KME1 051504Z 04002KT 31/17 A2998 RMK A01 T03110169  RH  042%=      5-min Rain = 0
KME1 051505Z 03002KT 31/17 A2998 RMK A01 T03120167  RH  042%=      5-min Rain = 0
KME1 051506Z 06002KT 31/17 A2998 RMK A01 T03120166  RH  042%=      5-min Rain = 0
KME1 051507Z 07001KT 31/17 A2998 RMK A01 T03110167  RH  042%=      5-min Rain = 0
KME1 051508Z 35003KT 31/17 A2998 RMK A01 T03110168  RH  042%=      5-min Rain = 0
KME1 051509Z 35003KT 31/17 A2998 RMK A01 T03120165  RH  041%=      5-min Rain = 0
KME1 051510Z 35004KT 31/17 A2998 RMK A01 T03110167  RH  042%=      5-min Rain = 0
KME1 051511Z 35004KT 31/17 A2998 RMK A01 T03100166  RH  042%=      5-min Rain = 0
KME1 051512Z 31003KT 31/17 A2998 RMK A01 T03090167  RH  042%=      5-min Rain = 0
KME1 051513Z 33003KT 31/17 A2998 RMK A01 T03090165  RH  042%=      5-min Rain = 0
KME1 051514Z 02002KT 31/17 A2998 RMK A01 T03080165  RH  042%=      5-min Rain = 0
KME1 051515Z 03003KT 31/17 A2998 RMK A01 T03080167  RH  043%=      5-min Rain = 0
KME1 051516Z 02002KT 31/17 A2998 RMK A01 T03090167  RH  043%=      5-min Rain = 0
KME1 051517Z 05002KT 31/17 A2998 RMK A01 T03120171  RH  043%=      5-min Rain = 0
KME1 051518Z 09005KT 31/17 A2998 RMK A01 T03140168  RH  042%=      5-min Rain = 0
KME1 051519Z 09004KT 31/17 A2998 RMK A01 T03130166  RH  041%=      5-min Rain = 0
KME1 051520Z 11003KT 31/17 A2998 RMK A01 T03110166  RH  042%=      5-min Rain = 0
KME1 051521Z 11003KT 31/17 A2998 RMK A01 T03110167  RH  042%=      5-min Rain = 0
KME1 051522Z 08003KT 31/17 A2998 RMK A01 T03110167  RH  042%=      5-min Rain = 0
KME1 051523Z 07003KT 31/17 A2998 RMK A01 T03120169  RH  042%=      5-min Rain = 0
KME1 051524Z 10004KT 31/17 A2998 RMK A01 T03140167  RH  041%=      5-min Rain = 0
KME1 051525Z 09004KT 31/17 A2998 RMK A01 T03130168  RH  042%=      5-min Rain = 0
KME1 051526Z 04003KT 31/17 A2998 RMK A01 T03130168  RH  042%=      5-min Rain = 0
KME1 051527Z 02005KT 32/17 A2998 RMK A01 T03150169  RH  042%=      5-min Rain = 0
KME1 051528Z 01002KT 32/17 A2998 RMK A01 T03160165  RH  040%=      5-min Rain = 0
KME1 051529Z 03001KT 32/16 A2998 RMK A01 T03150164  RH  040%=      5-min Rain = 0
KME1 051530Z 03002KT 32/16 A2998 RMK A01 T03150163  RH  040%=      5-min Rain = 0
KME1 051531Z 05001KT 32/16 A2998 RMK A01 T03150164  RH  040%=      5-min Rain = 0
KME1 051532Z 05002KT 32/16 A2998 RMK A01 T03150164  RH  040%=      5-min Rain = 0
KME1 051533Z 12001KT 32/17 A2997 RMK A01 T03170168  RH  041%=      5-min Rain = 0
KME1 051534Z 07004KT 32/17 A2997 RMK A01 T03190170  RH  041%=      5-min Rain = 0
KME1 051535Z 02002KT 32/17 A2997 RMK A01 T03200168  RH  040%=      5-min Rain = 0
KME1 051536Z 09001KT 32/17 A2997 RMK A01 T03200165  RH  039%=      5-min Rain = 0
KME1 051537Z 11003KT 32/17 A2997 RMK A01 T03210168  RH  040%=      5-min Rain = 0
KME1 051538Z 13004KT 32/17 A2997 RMK A01 T03210169  RH  040%=      5-min Rain = 0
KME1 051539Z 14004KT 32/17 A2997 RMK A01 T03210166  RH  040%=      5-min Rain = 0
KME1 051540Z 14005KT 32/17 A2997 RMK A01 T03190167  RH  040%=      5-min Rain = 0
KME1 051541Z 14005KT 32/17 A2997 RMK A01 T03180165  RH  040%=      5-min Rain = 0
KME1 051542Z 14006KT 32/17 A2997 RMK A01 T03170167  RH  041%=      5-min Rain = 0
KME1 051543Z 12004KT 32/17 A2997 RMK A01 T03170167  RH  041%=      5-min Rain = 0
KME1 051544Z 10003KT 32/17 A2997 RMK A01 T03170165  RH  040%=      5-min Rain = 0
KME1 051545Z 12003KT 32/17 A2997 RMK A01 T03160165  RH  040%=      5-min Rain = 0
KME1 051546Z 08003KT 32/17 A2997 RMK A01 T03160165  RH  040%=      5-min Rain = 0
KME1 051547Z 04002KT 32/17 A2997 RMK A01 T03150165  RH  040%=      5-min Rain = 0
KME1 051548Z 05000KT 32/16 A2997 RMK A01 T03150162  RH  040%=      5-min Rain = 0
KME1 051549Z 12001KT 32/17 A2997 RMK A01 T03170166  RH  040%=      5-min Rain = 0
KME1 051550Z 16002KT 32/16 A2997 RMK A01 T03200164  RH  039%=      5-min Rain = 0
KME1 051551Z 20002KT 32/17 A2997 RMK A01 T03200167  RH  040%=      5-min Rain = 0
KME1 051552Z 17002KT 32/17 A2997 RMK A01 T03220166  RH  039%=      5-min Rain = 0
KME1 051553Z 12003KT 32/17 A2997 RMK A01 T03220167  RH  039%=      5-min Rain = 0
KME1 051554Z 11005KT 32/17 A2997 RMK A01 T03230169  RH  040%=      5-min Rain = 0
KME1 051555Z 11005KT 32/17 A2997 RMK A01 T03240168  RH  039%=      5-min Rain = 0
KME1 051556Z 11003KT 32/16 A2997 RMK A01 T03200163  RH  039%=      5-min Rain = 0
KME1 051557Z 09002KT 32/16 A2997 RMK A01 T03180161  RH  039%=      5-min Rain = 0
KME1 051558Z 09003KT 32/16 A2997 RMK A01 T03180164  RH  040%=      5-min Rain = 0
KME1 051559Z 08004KT 32/16 A2997 RMK A01 T03180162  RH  039%=      5-min Rain = 0
KME1 051600Z 05002KT 32/16 A2997 RMK A01 T03170161  RH  039%=      5-min Rain = 0
KME1 051601Z 06003KT 32/17 A2997 RMK A01 T03190165  RH  040%=      5-min Rain = 0
KME1 051602Z 09002KT 32/17 A2997 RMK A01 T03210167  RH  040%=      5-min Rain = 0
KME1 051603Z 13002KT 32/17 A2997 RMK A01 T03230171  RH  040%=      5-min Rain = 0
KME1 051604Z 15003KT 33/17 A2997 RMK A01 T03260170  RH  039%=      5-min Rain = 0
KME1 051605Z 15004KT 33/16 A2997 RMK A01 T03270164  RH  038%=      5-min Rain = 0
KME1 051606Z 16002KT 32/16 A2997 RMK A01 T03240163  RH  038%=      5-min Rain = 0
KME1 051607Z 18002KT 32/16 A2997 RMK A01 T03230164  RH  038%=      5-min Rain = 0
KME1 051608Z 20002KT 32/16 A2997 RMK A01 T03230164  RH  039%=      5-min Rain = 0
KME1 051609Z 16004KT 32/17 A2997 RMK A01 T03240166  RH  039%=      5-min Rain = 0
KME1 051610Z 17006KT 33/17 A2997 RMK A01 T03260166  RH  038%=      5-min Rain = 0
KME1 051611Z 18006KT 33/17 A2997 RMK A01 T03260166  RH  038%=      5-min Rain = 0
KME1 051612Z 18006KT 33/16 A2997 RMK A01 T03250164  RH  038%=      5-min Rain = 0
KME1 051613Z 15005KT 32/17 A2997 RMK A01 T03240166  RH  039%=      5-min Rain = 0
KME1 051614Z 13005KT 32/16 A2997 RMK A01 T03240162  RH  038%=      5-min Rain = 0
KME1 051615Z 16003KT 32/16 A2997 RMK A01 T03220162  RH  038%=      5-min Rain = 0
KME1 051616Z 19003KT 32/16 A2997 RMK A01 T03210163  RH  039%=      5-min Rain = 0
KME1 051617Z 18003KT 32/16 A2997 RMK A01 T03220163  RH  039%=      5-min Rain = 0
KME1 051618Z 16003KT 32/17 A2997 RMK A01 T03230165  RH  039%=      5-min Rain = 0
KME1 051619Z 19001KT 33/16 A2997 RMK A01 T03260161  RH  037%=      5-min Rain = 0
KME1 051620Z 13003KT 33/16 A2996 RMK A01 T03280163  RH  037%=      5-min Rain = 0
KME1 051621Z 17005KT 33/17 A2996 RMK A01 T03290165  RH  037%=      5-min Rain = 0
KME1 051622Z 16004KT 33/16 A2996 RMK A01 T03300163  RH  037%=      5-min Rain = 0
KME1 051623Z 19004KT 33/17 A2996 RMK A01 T03280165  RH  038%=      5-min Rain = 0
KME1 051624Z 17001KT 33/16 A2996 RMK A01 T03280163  RH  037%=      5-min Rain = 0
KME1 051625Z 18000KT 33/16 A2996 RMK A01 T03280161  RH  037%=      5-min Rain = 0
KME1 051626Z 13001KT 33/17 A2996 RMK A01 T03290165  RH  037%=      5-min Rain = 0
KME1 051627Z 10002KT 33/16 A2996 RMK A01 T03310164  RH  037%=      5-min Rain = 0
KME1 051628Z 13002KT 33/17 A2996 RMK A01 T03310167  RH  037%=      5-min Rain = 0
KME1 051629Z 02000KT 33/16 A2996 RMK A01 T03310160  RH  036%=      5-min Rain = 0
KME1 051630Z 02001KT 33/16 A2996 RMK A01 T03320161  RH  036%=      5-min Rain = 0
KME1 051631Z 19001KT 33/16 A2996 RMK A01 T03330160  RH  036%=      5-min Rain = 0
KME1 051632Z 17002KT 33/16 A2996 RMK A01 T03330164  RH  036%=      5-min Rain = 0
KME1 051633Z 15004KT 34/17 A2996 RMK A01 T03360167  RH  036%=      5-min Rain = 0
KME1 051634Z 13004KT 34/17 A2996 RMK A01 T03360167  RH  036%=      5-min Rain = 0
KME1 051635Z 20006KT 34/17 A2996 RMK A01 T03350169  RH  037%=      5-min Rain = 0
KME1 051636Z 19004KT 34/17 A2996 RMK A01 T03350166  RH  036%=      5-min Rain = 0
KME1 051637Z 19005KT 33/17 A2996 RMK A01 T03340168  RH  037%=      5-min Rain = 0
KME1 051638Z 20005KT 33/16 A2996 RMK A01 T03330164  RH  036%=      5-min Rain = 0
KME1 051639Z 19006KT 33/17 A2996 RMK A01 T03300165  RH  037%=      5-min Rain = 0
KME1 051640Z 19005KT 33/16 A2996 RMK A01 T03290164  RH  037%=      5-min Rain = 0
KME1 051641Z 18006KT 33/17 A2996 RMK A01 T03290168  RH  038%=      5-min Rain = 0
KME1 051642Z 18007KT 33/17 A2996 RMK A01 T03330167  RH  037%=      5-min Rain = 0
KME1 051643Z 19005KT 33/17 A2996 RMK A01 T03330167  RH  037%=      5-min Rain = 0
KME1 051644Z 18005KT 33/16 A2996 RMK A01 T03330164  RH  036%=      5-min Rain = 0
KME1 051645Z 20006KT 33/17 A2996 RMK A01 T03320165  RH  037%=      5-min Rain = 0
KME1 051646Z 21006KT 33/17 A2996 RMK A01 T03310165  RH  037%=      5-min Rain = 0
KME1 051647Z 20005KT 33/16 A2996 RMK A01 T03300164  RH  037%=      5-min Rain = 0
KME1 051648Z 19006KT 33/17 A2996 RMK A01 T03290166  RH  038%=      5-min Rain = 0
KME1 051649Z 18005KT 33/17 A2996 RMK A01 T03300165  RH  037%=      5-min Rain = 0
KME1 051650Z 15002KT 33/16 A2996 RMK A01 T03300164  RH  037%=      5-min Rain = 0
KME1 051651Z 18001KT 33/17 A2996 RMK A01 T03310166  RH  037%=      5-min Rain = 0
KME1 051652Z 18004KT 33/17 A2996 RMK A01 T03340170  RH  038%=      5-min Rain = 0
KME1 051653Z 19006KT 34/17 A2996 RMK A01 T03360170  RH  037%=      5-min Rain = 0
KME1 051654Z 16005KT 33/17 A2996 RMK A01 T03340168  RH  037%=      5-min Rain = 0
KME1 051655Z 13005KT 33/17 A2996 RMK A01 T03330174  RH  039%=      5-min Rain = 0
KME1 051656Z 14005KT 34/17 A2996 RMK A01 T03350173  RH  038%=      5-min Rain = 0
KME1 051657Z 18007KT 34/18 A2996 RMK A01 T03360176  RH  038%=      5-min Rain = 0
KME1 051658Z 18006KT 34/17 A2996 RMK A01 T03400172  RH  037%=      5-min Rain = 0
KME1 051659Z 16004KT 34/17 A2996 RMK A01 T03400169  RH  036%=      5-min Rain = 0
KME1 051700Z 15005KT 34/17 A2996 RMK A01 T03390170  RH  037%=      5-min Rain = 0
KME1 051701Z 18005KT 34/17 A2996 RMK A01 T03390169  RH  036%=      5-min Rain = 0
KME1 051702Z 18007KT 34/17 A2996 RMK A01 T03390170  RH  037%=      5-min Rain = 0
KME1 051703Z 18005KT 34/17 A2996 RMK A01 T03400165  RH  035%=      5-min Rain = 0
KME1 051704Z 17006KT 34/17 A2996 RMK A01 T03370166  RH  036%=      5-min Rain = 0
KME1 051705Z 18006KT 34/17 A2996 RMK A01 T03360166  RH  036%=      5-min Rain = 0
KME1 051706Z 18005KT 34/17 A2996 RMK A01 T03350165  RH  036%=      5-min Rain = 0
KME1 051707Z 16003KT 33/16 A2996 RMK A01 T03340164  RH  036%=      5-min Rain = 0
KME1 051708Z 15003KT 33/17 A2996 RMK A01 T03330168  RH  037%=      5-min Rain = 0
KME1 051709Z 14000KT 33/16 A2996 RMK A01 T03340163  RH  036%=      5-min Rain = 0
KME1 051710Z 34002KT 33/16 A2996 RMK A01 T03340163  RH  036%=      5-min Rain = 0
KME1 051711Z 26001KT 33/17 A2996 RMK A01 T03330165  RH  037%=      5-min Rain = 0
KME1 051712Z 17003KT 33/17 A2996 RMK A01 T03330167  RH  037%=      5-min Rain = 0
KME1 051713Z 18002KT 34/17 A2996 RMK A01 T03350166  RH  037%=      5-min Rain = 0
KME1 051714Z 19001KT 34/17 A2996 RMK A01 T03370170  RH  037%=      5-min Rain = 0
KME1 051715Z 22004KT 34/17 A2996 RMK A01 T03400168  RH  036%=      5-min Rain = 0
KME1 051716Z 19007KT 34/17 A2996 RMK A01 T03410169  RH  036%=      5-min Rain = 0
KME1 051717Z 19004KT 34/17 A2996 RMK A01 T03390166  RH  036%=      5-min Rain = 0
KME1 051718Z 19002KT 34/17 A2996 RMK A01 T03360166  RH  036%=      5-min Rain = 0
KME1 051719Z 22001KT 34/17 A2996 RMK A01 T03370169  RH  037%=      5-min Rain = 0
KME1 051720Z 20003KT 34/17 A2996 RMK A01 T03390168  RH  036%=      5-min Rain = 0
KME1 051721Z 16004KT 34/17 A2996 RMK A01 T03390167  RH  036%=      5-min Rain = 0
KME1 051722Z 16007KT 34/17 A2996 RMK A01 T03400169  RH  036%=      5-min Rain = 0
KME1 051723Z 16009KT 34/17 A2996 RMK A01 T03410167  RH  036%=      5-min Rain = 0
KME1 051724Z 16007KT 34/17 A2996 RMK A01 T03410170  RH  036%=      5-min Rain = 0
KME1 051725Z 14006KT 34/17 A2996 RMK A01 T03420167  RH  035%=      5-min Rain = 0
KME1 051726Z 15005KT 34/17 A2996 RMK A01 T03420170  RH  036%=      5-min Rain = 0
KME1 051727Z 19007KT 34/17 A2996 RMK A01 T03420167  RH  035%=      5-min Rain = 0
KME1 051728Z 19006KT 34/17 A2996 RMK A01 T03430165  RH  035%=      5-min Rain = 0
KME1 051729Z 15005KT 34/17 A2996 RMK A01 T03410167  RH  036%=      5-min Rain = 0
KME1 051730Z 14006KT 34/17 A2996 RMK A01 T03420167  RH  035%=      5-min Rain = 0
KME1 051731Z 16006KT 34/17 A2996 RMK A01 T03440169  RH  035%=      5-min Rain = 0
KME1 051732Z 15006KT 35/17 A2996 RMK A01 T03460169  RH  035%=      5-min Rain = 0
KME1 051733Z 15006KT 35/17 A2996 RMK A01 T03470169  RH  035%=      5-min Rain = 0
KME1 051734Z 17008KT 35/17 A2996 RMK A01 T03460169  RH  035%=      5-min Rain = 0
KME1 051735Z 18005KT 35/17 A2996 RMK A01 T03450166  RH  035%=      5-min Rain = 0
KME1 051736Z 16005KT 34/17 A2996 RMK A01 T03430167  RH  035%=      5-min Rain = 0
KME1 051737Z 12006KT 34/17 A2996 RMK A01 T03440170  RH  036%=      5-min Rain = 0
KME1 051738Z 17005KT 35/17 A2996 RMK A01 T03460170  RH  035%=      5-min Rain = 0
KME1 051739Z 19007KT 35/17 A2996 RMK A01 T03470168  RH  035%=      5-min Rain = 0
KME1 051740Z 19006KT 35/17 A2996 RMK A01 T03460169  RH  035%=      5-min Rain = 0
KME1 051741Z 19006KT 35/17 A2996 RMK A01 T03470167  RH  034%=      5-min Rain = 0
KME1 051742Z 17005KT 35/17 A2996 RMK A01 T03470167  RH  034%=      5-min Rain = 0
KME1 051743Z 17005KT 35/17 A2996 RMK A01 T03480166  RH  034%=      5-min Rain = 0
KME1 051744Z 17006KT 35/17 A2996 RMK A01 T03490167  RH  034%=      5-min Rain = 0
KME1 051745Z 17005KT 35/17 A2996 RMK A01 T03480165  RH  034%=      5-min Rain = 0
KME1 051746Z 17006KT 35/17 A2995 RMK A01 T03460168  RH  035%=      5-min Rain = 0
KME1 051747Z 19006KT 35/17 A2995 RMK A01 T03470169  RH  035%=      5-min Rain = 0
KME1 051748Z 19007KT 35/17 A2995 RMK A01 T03480167  RH  034%=      5-min Rain = 0
KME1 051749Z 20005KT 35/17 A2995 RMK A01 T03460167  RH  035%=      5-min Rain = 0
KME1 051750Z 16005KT 35/17 A2995 RMK A01 T03450166  RH  034%=      5-min Rain = 0
KME1 051751Z 18003KT 35/17 A2995 RMK A01 T03450167  RH  035%=      5-min Rain = 0
KME1 051752Z 22004KT 35/17 A2995 RMK A01 T03470165  RH  034%=      5-min Rain = 0
KME1 051753Z 21004KT 35/17 A2995 RMK A01 T03480165  RH  034%=      5-min Rain = 0
KME1 051754Z 23003KT 35/17 A2995 RMK A01 T03480165  RH  034%=      5-min Rain = 0
KME1 051755Z 24003KT 35/17 A2995 RMK A01 T03460166  RH  034%=      5-min Rain = 0
KME1 051756Z 25004KT 35/17 A2995 RMK A01 T03460170  RH  035%=      5-min Rain = 0
KME1 051757Z 23004KT 35/17 A2995 RMK A01 T03480170  RH  035%=      5-min Rain = 0
KME1 051758Z 24006KT 35/17 A2995 RMK A01 T03500170  RH  034%=      5-min Rain = 0
KME1 051759Z 23006KT 35/17 A2995 RMK A01 T03500173  RH  035%=      5-min Rain = 0
KME1 051800Z 22006KT 35/17 A2995 RMK A01 T03510173  RH  035%=      5-min Rain = 0
KME1 051801Z 21005KT 35/17 A2995 RMK A01 T03490169  RH  034%=      5-min Rain = 0
KME1 051802Z 18002KT 34/17 A2995 RMK A01 T03440168  RH  035%=      5-min Rain = 0
KME1 051803Z 17001KT 34/17 A2995 RMK A01 T03430169  RH  036%=      5-min Rain = 0
KME1 051804Z 25002KT 34/17 A2995 RMK A01 T03440170  RH  035%=      5-min Rain = 0
KME1 051805Z 22002KT 35/17 A2995 RMK A01 T03480174  RH  036%=      5-min Rain = 0
KME1 051806Z 18004KT 35/17 A2995 RMK A01 T03530173  RH  035%=      5-min Rain = 0
KME1 051807Z 18004KT 35/17 A2995 RMK A01 T03530170  RH  034%=      5-min Rain = 0
KME1 051808Z 22003KT 35/17 A2995 RMK A01 T03520170  RH  034%=      5-min Rain = 0
KME1 051809Z 21001KT 35/17 A2995 RMK A01 T03510171  RH  034%=      5-min Rain = 0
KME1 051810Z 17005KT 35/17 A2995 RMK A01 T03520173  RH  035%=      5-min Rain = 0
KME1 051811Z 18005KT 35/17 A2995 RMK A01 T03540174  RH  035%=      5-min Rain = 0
KME1 051812Z 19006KT 36/18 A2995 RMK A01 T03550175  RH  034%=      5-min Rain = 0
KME1 051813Z 22002KT 36/17 A2995 RMK A01 T03550171  RH  034%=      5-min Rain = 0
KME1 051814Z 16003KT 35/17 A2995 RMK A01 T03540170  RH  034%=      5-min Rain = 0
KME1 051815Z 18004KT 35/17 A2995 RMK A01 T03540172  RH  034%=      5-min Rain = 0
KME1 051816Z 20005KT 35/17 A2995 RMK A01 T03530170  RH  034%=      5-min Rain = 0
KME1 051817Z 20004KT 35/17 A2995 RMK A01 T03520171  RH  034%=      5-min Rain = 0
KME1 051818Z 20002KT 35/17 A2995 RMK A01 T03510171  RH  034%=      5-min Rain = 0
KME1 051819Z 21002KT 35/17 A2995 RMK A01 T03500170  RH  034%=      5-min Rain = 0
KME1 051820Z 23004KT 35/17 A2995 RMK A01 T03490171  RH  035%=      5-min Rain = 0
KME1 051821Z 25003KT 35/17 A2995 RMK A01 T03490171  RH  035%=      5-min Rain = 0
KME1 051822Z 24002KT 35/17 A2995 RMK A01 T03490170  RH  034%=      5-min Rain = 0
KME1 051823Z 20002KT 35/17 A2994 RMK A01 T03500171  RH  035%=      5-min Rain = 0
KME1 051824Z 17002KT 35/17 A2994 RMK A01 T03520173  RH  035%=      5-min Rain = 0
KME1 051825Z 20004KT 35/18 A2994 RMK A01 T03530175  RH  035%=      5-min Rain = 0
KME1 051826Z 20004KT 36/18 A2994 RMK A01 T03560177  RH  035%=      5-min Rain = 0
KME1 051827Z 19004KT 36/18 A2994 RMK A01 T03560178  RH  035%=      5-min Rain = 0
KME1 051828Z 19003KT 36/17 A2994 RMK A01 T03560172  RH  034%=      5-min Rain = 0
KME1 051829Z 20002KT 36/17 A2994 RMK A01 T03550174  RH  034%=      5-min Rain = 0
KME1 051830Z 19003KT 36/17 A2994 RMK A01 T03550174  RH  034%=      5-min Rain = 0
KME1 051831Z 17004KT 36/17 A2994 RMK A01 T03580169  RH  033%=      5-min Rain = 0
KME1 051832Z 19002KT 36/16 A2994 RMK A01 T03600164  RH  031%=      5-min Rain = 0
KME1 051833Z 24001KT 36/16 A2994 RMK A01 T03610163  RH  031%=      5-min Rain = 0
KME1 051834Z 18003KT 36/17 A2994 RMK A01 T03610170  RH  032%=      5-min Rain = 0
KME1 051835Z 15005KT 36/17 A2994 RMK A01 T03620170  RH  032%=      5-min Rain = 0
KME1 051836Z 12003KT 36/17 A2994 RMK A01 T03610168  RH  032%=      5-min Rain = 0
KME1 051837Z 11002KT 36/17 A2994 RMK A01 T03590166  RH  032%=      5-min Rain = 0
KME1 051838Z 13004KT 36/17 A2994 RMK A01 T03570166  RH  032%=      5-min Rain = 0
KME1 051839Z 11004KT 36/17 A2994 RMK A01 T03560167  RH  033%=      5-min Rain = 0
KME1 051840Z 11004KT 35/17 A2994 RMK A01 T03540167  RH  033%=      5-min Rain = 0
KME1 051841Z 12002KT 35/17 A2994 RMK A01 T03520165  RH  033%=      5-min Rain = 0
KME1 051842Z 08002KT 35/17 A2994 RMK A01 T03510168  RH  034%=      5-min Rain = 0
KME1 051843Z 07003KT 35/17 A2994 RMK A01 T03520168  RH  033%=      5-min Rain = 0
KME1 051844Z 04001KT 35/17 A2994 RMK A01 T03530166  RH  033%=      5-min Rain = 0
KME1 051845Z 06001KT 36/17 A2994 RMK A01 T03560170  RH  033%=      5-min Rain = 0
KME1 051846Z 07000KT 36/17 A2994 RMK A01 T03600170  RH  032%=      5-min Rain = 0
KME1 051847Z 21001KT 36/17 A2994 RMK A01 T03620169  RH  032%=      5-min Rain = 0
KME1 051848Z 19003KT 36/17 A2994 RMK A01 T03630172  RH  032%=      5-min Rain = 0
KME1 051849Z 17004KT 37/17 A2994 RMK A01 T03650173  RH  032%=      5-min Rain = 0
KME1 051850Z 12006KT 37/18 A2994 RMK A01 T03660175  RH  032%=      5-min Rain = 0
KME1 051851Z 11006KT 37/17 A2994 RMK A01 T03660171  RH  032%=      5-min Rain = 0
KME1 051852Z 13006KT 36/17 A2994 RMK A01 T03630166  RH  031%=      5-min Rain = 0
KME1 051853Z 13003KT 36/16 A2994 RMK A01 T03610162  RH  031%=      5-min Rain = 0
KME1 051854Z 09005KT 36/17 A2993 RMK A01 T03590166  RH  032%=      5-min Rain = 0
KME1 051855Z 07003KT 36/17 A2993 RMK A01 T03590166  RH  032%=      5-min Rain = 0
KME1 051856Z 09001KT 36/16 A2993 RMK A01 T03570164  RH  032%=      5-min Rain = 0
KME1 051857Z 13003KT 36/17 A2993 RMK A01 T03570166  RH  032%=      5-min Rain = 0
KME1 051858Z 15006KT 36/17 A2993 RMK A01 T03580168  RH  032%=      5-min Rain = 0
KME1 051859Z 15003KT 36/17 A2993 RMK A01 T03580167  RH  032%=      5-min Rain = 0
KME1 051900Z 12003KT 36/17 A2993 RMK A01 T03590170  RH  033%=      5-min Rain = 0
KME1 051901Z 12007KT 36/17 A2993 RMK A01 T03600169  RH  032%=      5-min Rain = 0
KME1 051902Z 12006KT 36/16 A2993 RMK A01 T03600164  RH  031%=      5-min Rain = 0
KME1 051903Z 13005KT 36/16 A2993 RMK A01 T03570162  RH  031%=      5-min Rain = 0
KME1 051904Z 12005KT 36/17 A2993 RMK A01 T03550166  RH  033%=      5-min Rain = 0
KME1 051905Z 12006KT 36/17 A2993 RMK A01 T03560165  RH  032%=      5-min Rain = 0
KME1 051906Z 13005KT 36/17 A2993 RMK A01 T03580169  RH  033%=      5-min Rain = 0
KME1 051907Z 13006KT 36/16 A2993 RMK A01 T03590162  RH  031%=      5-min Rain = 0
KME1 051908Z 14003KT 36/16 A2993 RMK A01 T03590164  RH  031%=      5-min Rain = 0
KME1 051909Z 10004KT 36/16 A2993 RMK A01 T03590164  RH  031%=      5-min Rain = 0
KME1 051910Z 09004KT 36/16 A2993 RMK A01 T03580161  RH  031%=      5-min Rain = 0
KME1 051911Z 10004KT 36/16 A2993 RMK A01 T03560159  RH  031%=      5-min Rain = 0
KME1 051912Z 09003KT 36/16 A2993 RMK A01 T03550157  RH  031%=      5-min Rain = 0
KME1 051913Z 07003KT 36/16 A2993 RMK A01 T03550160  RH  031%=      5-min Rain = 0
KME1 051914Z 07003KT 36/16 A2993 RMK A01 T03550161  RH  032%=      5-min Rain = 0
KME1 051915Z 07003KT 36/16 A2993 RMK A01 T03560158  RH  031%=      5-min Rain = 0
KME1 051916Z 09001KT 36/16 A2993 RMK A01 T03560164  RH  032%=      5-min Rain = 0
KME1 051917Z 17001KT 36/16 A2993 RMK A01 T03580161  RH  031%=      5-min Rain = 0
KME1 051918Z 10002KT 36/16 A2993 RMK A01 T03590163  RH  031%=      5-min Rain = 0
KME1 051919Z 10004KT 36/16 A2993 RMK A01 T03600161  RH  031%=      5-min Rain = 0
KME1 051920Z 11005KT 36/16 A2993 RMK A01 T03600161  RH  031%=      5-min Rain = 0
KME1 051921Z 13003KT 36/16 A2993 RMK A01 T03580159  RH  031%=      5-min Rain = 0
KME1 051922Z 16003KT 36/16 A2993 RMK A01 T03580164  RH  032%=      5-min Rain = 0
KME1 051923Z 17003KT 36/16 A2993 RMK A01 T03590161  RH  031%=      5-min Rain = 0
KME1 051924Z 20003KT 36/16 A2992 RMK A01 T03600162  RH  031%=      5-min Rain = 0
KME1 051925Z 18001KT 36/16 A2992 RMK A01 T03600158  RH  030%=      5-min Rain = 0
KME1 051926Z 19002KT 36/16 A2992 RMK A01 T03590159  RH  031%=      5-min Rain = 0
KME1 051927Z 18002KT 36/16 A2992 RMK A01 T03590159  RH  031%=      5-min Rain = 0
KME1 051928Z 03000KT 36/16 A2992 RMK A01 T03580159  RH  031%=      5-min Rain = 0
KME1 051929Z 18001KT 36/16 A2992 RMK A01 T03590158  RH  030%=      5-min Rain = 0
KME1 051930Z 20002KT 36/16 A2992 RMK A01 T03600158  RH  030%=      5-min Rain = 0
KME1 051931Z 19001KT 36/16 A2992 RMK A01 T03590159  RH  030%=      5-min Rain = 0
KME1 051932Z 16001KT 36/16 A2992 RMK A01 T03600159  RH  030%=      5-min Rain = 0
KME1 051933Z 12002KT 36/16 A2992 RMK A01 T03610160  RH  030%=      5-min Rain = 0
KME1 051934Z 09003KT 36/16 A2992 RMK A01 T03600158  RH  030%=      5-min Rain = 0
KME1 051935Z 08002KT 36/16 A2992 RMK A01 T03580160  RH  031%=      5-min Rain = 0
KME1 051936Z 14002KT 36/16 A2992 RMK A01 T03570164  RH  032%=      5-min Rain = 0
KME1 051937Z 14003KT 36/16 A2992 RMK A01 T03580158  RH  030%=      5-min Rain = 0
KME1 051938Z 17003KT 36/16 A2992 RMK A01 T03580159  RH  031%=      5-min Rain = 0
KME1 051939Z 16003KT 36/16 A2992 RMK A01 T03590158  RH  030%=      5-min Rain = 0
KME1 051940Z 12004KT 36/16 A2992 RMK A01 T03590158  RH  030%=      5-min Rain = 0
KME1 051941Z 12004KT 36/16 A2992 RMK A01 T03590160  RH  031%=      5-min Rain = 0
KME1 051942Z 11005KT 36/16 A2992 RMK A01 T03580159  RH  031%=      5-min Rain = 0
KME1 051943Z 10004KT 36/16 A2992 RMK A01 T03580160  RH  031%=      5-min Rain = 0
KME1 051944Z 10002KT 36/16 A2992 RMK A01 T03580160  RH  031%=      5-min Rain = 0
KME1 051945Z 10001KT 36/16 A2992 RMK A01 T03570158  RH  031%=      5-min Rain = 0
KME1 051946Z 10003KT 36/16 A2992 RMK A01 T03580161  RH  031%=      5-min Rain = 0
KME1 051947Z 08001KT 36/16 A2992 RMK A01 T03580159  RH  031%=      5-min Rain = 0
KME1 051948Z 03002KT 36/16 A2992 RMK A01 T03580158  RH  030%=      5-min Rain = 0
KME1 051949Z 02002KT 36/16 A2991 RMK A01 T03590157  RH  030%=      5-min Rain = 0
KME1 051950Z 02000KT 36/16 A2991 RMK A01 T03590156  RH  030%=      5-min Rain = 0
KME1 051951Z 05000KT 36/16 A2991 RMK A01 T03590157  RH  030%=      5-min Rain = 0
KME1 051952Z 00000KT 36/16 A2991 RMK A01 T03590157  RH  030%=      5-min Rain = 0
KME1 051953Z 00000KT 36/16 A2991 RMK A01 T03590158  RH  030%=      5-min Rain = 0
KME1 051954Z 35002KT 36/16 A2991 RMK A01 T03610159  RH  030%=      5-min Rain = 0
KME1 051955Z 32002KT 36/16 A2991 RMK A01 T03620161  RH  030%=      5-min Rain = 0
KME1 051956Z 32002KT 36/16 A2991 RMK A01 T03610159  RH  030%=      5-min Rain = 0
KME1 051957Z 32002KT 36/16 A2991 RMK A01 T03610159  RH  030%=      5-min Rain = 0
KME1 051958Z 35001KT 36/16 A2991 RMK A01 T03600159  RH  030%=      5-min Rain = 0
KME1 051959Z 32002KT 36/16 A2991 RMK A01 T03600159  RH  031%=      5-min Rain = 0
KME1 052000Z 30001KT 36/16 A2991 RMK A01 T03600160  RH  031%=      5-min Rain = 0
KME1 052001Z 35003KT 36/16 A2991 RMK A01 T03610161  RH  031%=      5-min Rain = 0
KME1 052002Z 32003KT 36/16 A2991 RMK A01 T03610163  RH  031%=      5-min Rain = 0
KME1 052003Z 33004KT 36/17 A2991 RMK A01 T03620165  RH  031%=      5-min Rain = 0
KME1 052004Z 34003KT 36/16 A2991 RMK A01 T03630163  RH  031%=      5-min Rain = 0
KME1 052005Z 33003KT 36/16 A2991 RMK A01 T03630161  RH  030%=      5-min Rain = 0
KME1 052006Z 32002KT 36/16 A2991 RMK A01 T03620162  RH  031%=      5-min Rain = 0
KME1 052007Z 31001KT 36/16 A2991 RMK A01 T03620162  RH  031%=      5-min Rain = 0
KME1 052008Z 33000KT 36/16 A2991 RMK A01 T03620159  RH  030%=      5-min Rain = 0
KME1 052009Z 20000KT 36/16 A2991 RMK A01 T03630159  RH  030%=      5-min Rain = 0
KME1 052010Z 15002KT 36/16 A2991 RMK A01 T03640160  RH  030%=      5-min Rain = 0
KME1 052011Z 14004KT 37/17 A2991 RMK A01 T03650166  RH  031%=      5-min Rain = 0
KME1 052012Z 20002KT 37/16 A2991 RMK A01 T03650164  RH  030%=      5-min Rain = 0
KME1 052013Z 23001KT 37/16 A2991 RMK A01 T03650164  RH  031%=      5-min Rain = 0
KME1 052014Z 20001KT 37/16 A2991 RMK A01 T03650163  RH  030%=      5-min Rain = 0
KME1 052015Z 16003KT 37/17 A2991 RMK A01 T03670167  RH  031%=      5-min Rain = 0
KME1 052016Z 16004KT 37/17 A2991 RMK A01 T03690171  RH  031%=      5-min Rain = 0
KME1 052017Z 17005KT 37/17 A2991 RMK A01 T03710169  RH  030%=      5-min Rain = 0
KME1 052018Z 18004KT 37/17 A299 RMK A01 T03700168  RH  031%=      5-min Rain = 0
KME1 052019Z 19003KT 37/17 A299 RMK A01 T03690167  RH  030%=      5-min Rain = 0
KME1 052020Z 19002KT 37/17 A299 RMK A01 T03670167  RH  031%=      5-min Rain = 0
KME1 052021Z 15005KT 37/17 A299 RMK A01 T03670168  RH  031%=      5-min Rain = 0
KME1 052022Z 10004KT 37/17 A299 RMK A01 T03660172  RH  032%=      5-min Rain = 0
KME1 052023Z 13007KT 37/17 A299 RMK A01 T03670172  RH  032%=      5-min Rain = 0
KME1 052024Z 12007KT 37/17 A299 RMK A01 T03660165  RH  031%=      5-min Rain = 0
KME1 052025Z 11004KT 36/17 A299 RMK A01 T03640166  RH  031%=      5-min Rain = 0
KME1 052026Z 09004KT 36/17 A299 RMK A01 T03630169  RH  032%=      5-min Rain = 0
KME1 052027Z 07004KT 36/16 A299 RMK A01 T03620163  RH  031%=      5-min Rain = 0
KME1 052028Z 06003KT 36/16 A299 RMK A01 T03600163  RH  031%=      5-min Rain = 0
KME1 052029Z 05001KT 36/16 A299 RMK A01 T03590160  RH  031%=      5-min Rain = 0
KME1 052030Z 36001KT 36/16 A299 RMK A01 T03590162  RH  031%=      5-min Rain = 0
KME1 052031Z 10000KT 36/16 A299 RMK A01 T03600161  RH  031%=      5-min Rain = 0
KME1 052032Z 12002KT 36/17 A299 RMK A01 T03620165  RH  031%=      5-min Rain = 0
KME1 052033Z 10005KT 36/17 A299 RMK A01 T03640169  RH  032%=      5-min Rain = 0
KME1 052034Z 11006KT 37/17 A299 RMK A01 T03650167  RH  031%=      5-min Rain = 0
KME1 052035Z 10005KT 37/17 A2989 RMK A01 T03650167  RH  031%=      5-min Rain = 0
KME1 052036Z 09006KT 36/16 A2989 RMK A01 T03640163  RH  030%=      5-min Rain = 0
KME1 052037Z 09004KT 37/16 A2989 RMK A01 T03650162  RH  030%=      5-min Rain = 0
KME1 052038Z 10007KT 37/17 A2989 RMK A01 T03660168  RH  031%=      5-min Rain = 0
KME1 052039Z 11009KT 37/16 A2989 RMK A01 T03690162  RH  029%=      5-min Rain = 0
KME1 052040Z 12007KT 37/16 A2989 RMK A01 T03700162  RH  029%=      5-min Rain = 0
KME1 052041Z 11007KT 37/16 A2989 RMK A01 T03710162  RH  029%=      5-min Rain = 0
KME1 052042Z 10007KT 37/16 A2989 RMK A01 T03710163  RH  029%=      5-min Rain = 0
KME1 052043Z 13007KT 37/17 A2989 RMK A01 T03710165  RH  030%=      5-min Rain = 0
KME1 052044Z 14007KT 37/16 A2989 RMK A01 T03740161  RH  028%=      5-min Rain = 0
KME1 052045Z 12008KT 37/16 A2989 RMK A01 T03740156  RH  028%=      5-min Rain = 0
KME1 052046Z 12007KT 37/15 A2989 RMK A01 T03720153  RH  027%=      5-min Rain = 0
KME1 052047Z 11006KT 37/16 A2989 RMK A01 T03710155  RH  028%=      5-min Rain = 0
KME1 052048Z 13004KT 37/15 A2989 RMK A01 T03710154  RH  028%=      5-min Rain = 0
KME1 052049Z 12006KT 37/16 A2989 RMK A01 T03710157  RH  028%=      5-min Rain = 0
KME1 052050Z 11005KT 37/15 A2989 RMK A01 T03710154  RH  028%=      5-min Rain = 0
KME1 052051Z 09003KT 37/15 A2989 RMK A01 T03710153  RH  028%=      5-min Rain = 0
KME1 052052Z 08002KT 37/15 A2989 RMK A01 T03700151  RH  027%=      5-min Rain = 0
KME1 052053Z 17001KT 37/15 A2989 RMK A01 T03690149  RH  027%=      5-min Rain = 0
KME1 052054Z 14008KT 37/15 A2989 RMK A01 T03690153  RH  028%=      5-min Rain = 0
KME1 052055Z 14008KT 37/15 A2989 RMK A01 T03710153  RH  027%=      5-min Rain = 0
KME1 052056Z 11008KT 37/15 A2989 RMK A01 T03720154  RH  028%=      5-min Rain = 0
KME1 052057Z 11006KT 37/15 A2989 RMK A01 T03720154  RH  027%=      5-min Rain = 0
KME1 052058Z 13008KT 37/15 A2988 RMK A01 T03720154  RH  028%=      5-min Rain = 0
KME1 052059Z 13008KT 37/16 A2988 RMK A01 T03720156  RH  028%=      5-min Rain = 0
KME1 052100Z 14010KT 38/16 A2988 RMK A01 T03750156  RH  027%=      5-min Rain = 0
KME1 052101Z 16006KT 38/15 A2988 RMK A01 T03750154  RH  027%=      5-min Rain = 0
KME1 052102Z 17004KT 37/15 A2988 RMK A01 T03740153  RH  027%=      5-min Rain = 0
KME1 052103Z 11007KT 37/16 A2988 RMK A01 T03730156  RH  028%=      5-min Rain = 0
KME1 052104Z 10006KT 37/15 A2988 RMK A01 T03720152  RH  027%=      5-min Rain = 0
KME1 052105Z 09007KT 37/16 A2988 RMK A01 T03730158  RH  028%=      5-min Rain = 0
KME1 052106Z 10006KT 37/15 A2988 RMK A01 T03740154  RH  027%=      5-min Rain = 0
KME1 052107Z 13003KT 37/16 A2988 RMK A01 T03720155  RH  028%=      5-min Rain = 0
KME1 052108Z 09004KT 37/16 A2988 RMK A01 T03720156  RH  028%=      5-min Rain = 0
KME1 052109Z 09005KT 37/16 A2988 RMK A01 T03730156  RH  028%=      5-min Rain = 0
KME1 052110Z 06005KT 37/16 A2988 RMK A01 T03730158  RH  028%=      5-min Rain = 0
KME1 052111Z 09007KT 37/16 A2988 RMK A01 T03740155  RH  027%=      5-min Rain = 0
KME1 052112Z 11007KT 37/16 A2988 RMK A01 T03740159  RH  028%=      5-min Rain = 0
KME1 052113Z 12007KT 38/16 A2988 RMK A01 T03760156  RH  027%=      5-min Rain = 0
KME1 052114Z 12006KT 38/16 A2988 RMK A01 T03760155  RH  027%=      5-min Rain = 0
KME1 052115Z 10007KT 38/16 A2988 RMK A01 T03760158  RH  028%=      5-min Rain = 0
KME1 052116Z 11005KT 38/15 A2988 RMK A01 T03760154  RH  027%=      5-min Rain = 0
KME1 052117Z 12003KT 38/15 A2987 RMK A01 T03750151  RH  027%=      5-min Rain = 0
KME1 052118Z 11002KT 37/15 A2987 RMK A01 T03740152  RH  027%=      5-min Rain = 0
KME1 052119Z 15004KT 38/16 A2987 RMK A01 T03750157  RH  028%=      5-min Rain = 0
KME1 052120Z 18005KT 38/15 A2987 RMK A01 T03770152  RH  027%=      5-min Rain = 0
KME1 052121Z 17009KT 38/15 A2987 RMK A01 T03760154  RH  027%=      5-min Rain = 0
KME1 052122Z 15011KT 38/16 A2987 RMK A01 T03750155  RH  027%=      5-min Rain = 0
KME1 052123Z 14007KT 38/16 A2987 RMK A01 T03760157  RH  027%=      5-min Rain = 0
KME1 052124Z 09005KT 38/16 A2987 RMK A01 T03770156  RH  027%=      5-min Rain = 0
KME1 052125Z 11004KT 38/16 A2987 RMK A01 T03770155  RH  027%=      5-min Rain = 0
KME1 052126Z 12011G17KT 38/16 A2987 RMK A01 T03760158  RH  028%=      5-min Rain = 0
KME1 052127Z 16009G20KT 38/16 A2987 RMK A01 T03760156  RH  027%=      5-min Rain = 0
KME1 052128Z 14008KT 38/16 A2987 RMK A01 T03780159  RH  028%=      5-min Rain = 0
KME1 052129Z 14009KT 38/16 A2987 RMK A01 T03790156  RH  027%=      5-min Rain = 0
KME1 052130Z 14013KT 38/16 A2987 RMK A01 T03780155  RH  027%=      5-min Rain = 0
KME1 052131Z 15009KT 38/16 A2987 RMK A01 T03770157  RH  027%=      5-min Rain = 0
KME1 052132Z 16007KT 38/15 A2987 RMK A01 T03770151  RH  026%=      5-min Rain = 0
KME1 052133Z 17004KT 38/15 A2987 RMK A01 T03760152  RH  027%=      5-min Rain = 0
KME1 052134Z 17005KT 38/15 A2987 RMK A01 T03760151  RH  026%=      5-min Rain = 0
KME1 052135Z 16004KT 37/15 A2987 RMK A01 T03740151  RH  027%=      5-min Rain = 0
KME1 052136Z 15005KT 38/16 A2987 RMK A01 T03750156  RH  028%=      5-min Rain = 0
KME1 052137Z 12006KT 38/15 A2987 RMK A01 T03770152  RH  026%=      5-min Rain = 0
KME1 052138Z 10008KT 38/15 A2987 RMK A01 T03770153  RH  027%=      5-min Rain = 0
KME1 052139Z 10009KT 38/15 A2987 RMK A01 T03770153  RH  027%=      5-min Rain = 0
KME1 052140Z 10006KT 38/15 A2987 RMK A01 T03770154  RH  027%=      5-min Rain = 0
KME1 052141Z 09006KT 38/15 A2987 RMK A01 T03780153  RH  026%=      5-min Rain = 0
KME1 052142Z 09003KT 38/15 A2987 RMK A01 T03780149  RH  026%=      5-min Rain = 0
KME1 052143Z 08001KT 38/15 A2987 RMK A01 T03750151  RH  027%=      5-min Rain = 0
KME1 052144Z 12002KT 38/15 A2986 RMK A01 T03750149  RH  026%=      5-min Rain = 0
KME1 052145Z 09004KT 38/15 A2986 RMK A01 T03770149  RH  026%=      5-min Rain = 0
KME1 052146Z 08004KT 38/15 A2986 RMK A01 T03780149  RH  026%=      5-min Rain = 0
KME1 052147Z 11003KT 38/15 A2986 RMK A01 T03750145  RH  026%=      5-min Rain = 0
KME1 052148Z 10004KT 38/15 A2986 RMK A01 T03750150  RH  026%=      5-min Rain = 0
KME1 052149Z 10007KT 38/15 A2986 RMK A01 T03770152  RH  026%=      5-min Rain = 0
KME1 052150Z 14007KT 38/15 A2986 RMK A01 T03780151  RH  026%=      5-min Rain = 0
KME1 052151Z 13005KT 38/15 A2986 RMK A01 T03800153  RH  026%=      5-min Rain = 0
KME1 052152Z 08006KT 38/15 A2986 RMK A01 T03820153  RH  026%=      5-min Rain = 0
KME1 052153Z 06004KT 38/15 A2986 RMK A01 T03810149  RH  026%=      5-min Rain = 0
KME1 052154Z 09004KT 38/15 A2986 RMK A01 T03790150  RH  026%=      5-min Rain = 0
KME1 052155Z 09005KT 38/15 A2986 RMK A01 T03790154  RH  026%=      5-min Rain = 0
KME1 052156Z 07005KT 38/15 A2986 RMK A01 T03810151  RH  026%=      5-min Rain = 0
KME1 052157Z 10009KT 38/15 A2986 RMK A01 T03800148  RH  025%=      5-min Rain = 0
KME1 052158Z 13008KT 38/15 A2986 RMK A01 T03800152  RH  026%=      5-min Rain = 0
KME1 052159Z 14006KT 38/15 A2986 RMK A01 T03810149  RH  026%=      5-min Rain = 0
KME1 052200Z 15006KT 38/15 A2986 RMK A01 T03810153  RH  026%=      5-min Rain = 0
KME1 052201Z 16006KT 38/15 A2986 RMK A01 T03810152  RH  026%=      5-min Rain = 0
KME1 052202Z 13006KT 38/15 A2986 RMK A01 T03810150  RH  026%=      5-min Rain = 0
KME1 052203Z 13004KT 38/15 A2986 RMK A01 T03800149  RH  026%=      5-min Rain = 0
KME1 052204Z 10005KT 38/15 A2986 RMK A01 T03790152  RH  026%=      5-min Rain = 0
KME1 052205Z 11006KT 38/15 A2986 RMK A01 T03790150  RH  026%=      5-min Rain = 0
KME1 052206Z 12005KT 38/15 A2986 RMK A01 T03790149  RH  026%=      5-min Rain = 0
KME1 052207Z 11004KT 38/15 A2986 RMK A01 T03780147  RH  025%=      5-min Rain = 0
KME1 052208Z 10007KT 38/15 A2986 RMK A01 T03790149  RH  026%=      5-min Rain = 0
KME1 052209Z 13003KT 38/14 A2986 RMK A01 T03780142  RH  025%=      5-min Rain = 0
KME1 052210Z 12004KT 38/15 A2986 RMK A01 T03760148  RH  026%=      5-min Rain = 0
KME1 052211Z 13007KT 38/15 A2986 RMK A01 T03790153  RH  026%=      5-min Rain = 0
KME1 052212Z 15006KT 38/15 A2986 RMK A01 T03810148  RH  025%=      5-min Rain = 0
KME1 052213Z 13006KT 38/15 A2986 RMK A01 T03810152  RH  026%=      5-min Rain = 0
KME1 052214Z 13006KT 38/15 A2986 RMK A01 T03810150  RH  026%=      5-min Rain = 0
KME1 052215Z 12006KT 38/15 A2986 RMK A01 T03790147  RH  025%=      5-min Rain = 0
KME1 052216Z 13007KT 38/15 A2986 RMK A01 T03790152  RH  026%=      5-min Rain = 0
KME1 052217Z 15005KT 38/15 A2986 RMK A01 T03800153  RH  026%=      5-min Rain = 0
KME1 052218Z 15007KT 38/15 A2986 RMK A01 T03820154  RH  026%=      5-min Rain = 0
KME1 052219Z 12006KT 38/15 A2985 RMK A01 T03830148  RH  025%=      5-min Rain = 0
KME1 052220Z 09008KT 38/15 A2985 RMK A01 T03810151  RH  026%=      5-min Rain = 0
KME1 052221Z 06003KT 38/15 A2985 RMK A01 T03790147  RH  025%=      5-min Rain = 0
KME1 052222Z 07004G9KT 38/15 A2985 RMK A01 T03760149  RH  026%=      5-min Rain = 0
KME1 052223Z 07007KT 38/15 A2985 RMK A01 T03760148  RH  026%=      5-min Rain = 0
KME1 052224Z 08006KT 38/15 A2985 RMK A01 T03760149  RH  026%=      5-min Rain = 0
KME1 052225Z 09007KT 38/15 A2985 RMK A01 T03770152  RH  026%=      5-min Rain = 0
KME1 052226Z 10009KT 38/15 A2985 RMK A01 T03790152  RH  026%=      5-min Rain = 0
KME1 052227Z 12010KT 38/15 A2985 RMK A01 T03800153  RH  026%=      5-min Rain = 0
KME1 052228Z 13010KT 38/15 A2985 RMK A01 T03800149  RH  026%=      5-min Rain = 0
KME1 052229Z 14008KT 38/15 A2985 RMK A01 T03790149  RH  026%=      5-min Rain = 0
KME1 052230Z 14008KT 38/15 A2985 RMK A01 T03780151  RH  026%=      5-min Rain = 0
KME1 052231Z 10007KT 38/15 A2985 RMK A01 T03800153  RH  026%=      5-min Rain = 0
KME1 052232Z 09006KT 38/15 A2985 RMK A01 T03800147  RH  025%=      5-min Rain = 0
KME1 052233Z 08005KT 38/15 A2985 RMK A01 T03780148  RH  026%=      5-min Rain = 0
KME1 052234Z 10006KT 38/15 A2985 RMK A01 T03780148  RH  026%=      5-min Rain = 0
KME1 052235Z 08006KT 38/15 A2985 RMK A01 T03780150  RH  026%=      5-min Rain = 0
KME1 052236Z 07005KT 38/15 A2985 RMK A01 T03780150  RH  026%=      5-min Rain = 0
KME1 052237Z 07005KT 38/14 A2985 RMK A01 T03780142  RH  025%=      5-min Rain = 0
KME1 052238Z 05004KT 38/15 A2985 RMK A01 T03760145  RH  025%=      5-min Rain = 0
KME1 052239Z 04004KT 38/14 A2985 RMK A01 T03760144  RH  025%=      5-min Rain = 0
KME1 052240Z 07004KT 38/14 A2984 RMK A01 T03770144  RH  025%=      5-min Rain = 0
KME1 052241Z 06002KT 38/14 A2985 RMK A01 T03770140  RH  024%=      5-min Rain = 0
KME1 052242Z 01002KT 38/14 A2984 RMK A01 T03760141  RH  025%=      5-min Rain = 0
KME1 052243Z 35002KT 38/14 A2984 RMK A01 T03770141  RH  025%=      5-min Rain = 0
KME1 052244Z 06002KT 38/15 A2984 RMK A01 T03790148  RH  026%=      5-min Rain = 0
KME1 052245Z 08003KT 38/15 A2984 RMK A01 T03810147  RH  025%=      5-min Rain = 0
KME1 052246Z 10004KT 38/15 A2984 RMK A01 T03810148  RH  025%=      5-min Rain = 0
KME1 052247Z 13005KT 38/15 A2984 RMK A01 T03800150  RH  026%=      5-min Rain = 0
KME1 052248Z 12006KT 38/15 A2984 RMK A01 T03810149  RH  025%=      5-min Rain = 0
KME1 052249Z 11007KT 38/15 A2984 RMK A01 T03800146  RH  025%=      5-min Rain = 0
KME1 052250Z 10006KT 38/15 A2984 RMK A01 T03790147  RH  025%=      5-min Rain = 0
KME1 052251Z 08004KT 38/15 A2984 RMK A01 T03780151  RH  026%=      5-min Rain = 0
KME1 052252Z 07005KT 38/15 A2984 RMK A01 T03800149  RH  026%=      5-min Rain = 0
KME1 052253Z 10005KT 38/15 A2984 RMK A01 T03810152  RH  026%=      5-min Rain = 0
KME1 052254Z 12005KT 38/15 A2984 RMK A01 T03820153  RH  026%=      5-min Rain = 0
KME1 052255Z 10006KT 38/15 A2984 RMK A01 T03830151  RH  025%=      5-min Rain = 0
KME1 052256Z 10004KT 38/15 A2984 RMK A01 T03820148  RH  025%=      5-min Rain = 0
KME1 052257Z 11003KT 38/15 A2984 RMK A01 T03800151  RH  026%=      5-min Rain = 0
KME1 052258Z 11006KT 38/15 A2984 RMK A01 T03810151  RH  026%=      5-min Rain = 0
KME1 052259Z 07004KT 38/15 A2984 RMK A01 T03820153  RH  026%=      5-min Rain = 0
KME1 052300Z 08007KT 38/15 A2984 RMK A01 T03820150  RH  025%=      5-min Rain = 0
KME1 052301Z 10007KT 38/15 A2984 RMK A01 T03830148  RH  025%=      5-min Rain = 0
KME1 052302Z 14006KT 38/15 A2984 RMK A01 T03820152  RH  026%=      5-min Rain = 0
KME1 052303Z 12008KT 38/15 A2984 RMK A01 T03820149  RH  025%=      5-min Rain = 0
KME1 052304Z 10008KT 38/15 A2984 RMK A01 T03810145  RH  025%=      5-min Rain = 0
KME1 052305Z 10008KT 38/14 A2984 RMK A01 T03800144  RH  025%=      5-min Rain = 0
KME1 052306Z 10008KT 38/14 A2984 RMK A01 T03790143  RH  025%=      5-min Rain = 0
KME1 052307Z 10006KT 38/14 A2984 RMK A01 T03780141  RH  024%=      5-min Rain = 0
KME1 052308Z 08007KT 38/14 A2984 RMK A01 T03770142  RH  025%=      5-min Rain = 0
KME1 052309Z 07006KT 38/14 A2984 RMK A01 T03770140  RH  024%=      5-min Rain = 0
KME1 052310Z 08005KT 38/15 A2984 RMK A01 T03770145  RH  025%=      5-min Rain = 0
KME1 052311Z 09006KT 38/14 A2984 RMK A01 T03780142  RH  025%=      5-min Rain = 0
KME1 052312Z 11005KT 38/14 A2984 RMK A01 T03780141  RH  025%=      5-min Rain = 0
KME1 052313Z 11005KT 38/14 A2983 RMK A01 T03760140  RH  025%=      5-min Rain = 0
KME1 052314Z 06007KT 38/15 A2983 RMK A01 T03770146  RH  025%=      5-min Rain = 0
KME1 052315Z 07008KT 38/15 A2983 RMK A01 T03790145  RH  025%=      5-min Rain = 0
KME1 052316Z 08008KT 38/14 A2983 RMK A01 T03800144  RH  025%=      5-min Rain = 0
KME1 052317Z 09007KT 38/15 A2983 RMK A01 T03790146  RH  025%=      5-min Rain = 0
KME1 052318Z 09005KT 38/15 A2983 RMK A01 T03790145  RH  025%=      5-min Rain = 0
KME1 052319Z 10006KT 38/15 A2983 RMK A01 T03790145  RH  025%=      5-min Rain = 0
KME1 052320Z 13006KT 38/15 A2983 RMK A01 T03790151  RH  026%=      5-min Rain = 0
KME1 052321Z 15006KT 38/14 A2983 RMK A01 T03800143  RH  024%=      5-min Rain = 0
KME1 052322Z 15005G10KT 38/14 A2983 RMK A01 T03800142  RH  024%=      5-min Rain = 0
KME1 052323Z 14007KT 38/14 A2983 RMK A01 T03800140  RH  024%=      5-min Rain = 0
KME1 052324Z 12005KT 38/14 A2983 RMK A01 T03790139  RH  024%=      5-min Rain = 0
KME1 052325Z 12006KT 38/14 A2983 RMK A01 T03780144  RH  025%=      5-min Rain = 0
KME1 052326Z 13006KT 38/14 A2983 RMK A01 T03780143  RH  025%=      5-min Rain = 0
KME1 052327Z 14006KT 38/14 A2983 RMK A01 T03790138  RH  024%=      5-min Rain = 0
KME1 052328Z 14006KT 38/14 A2983 RMK A01 T03790139  RH  024%=      5-min Rain = 0
KME1 052329Z 15006KT 38/14 A2983 RMK A01 T03790138  RH  024%=      5-min Rain = 0
KME1 052330Z 14005KT 38/14 A2983 RMK A01 T03780139  RH  024%=      5-min Rain = 0
KME1 052331Z 14005KT 38/14 A2983 RMK A01 T03780140  RH  024%=      5-min Rain = 0
KME1 052332Z 16003KT 38/14 A2983 RMK A01 T03780144  RH  025%=      5-min Rain = 0
KME1 052333Z 16004KT 38/14 A2983 RMK A01 T03790142  RH  025%=      5-min Rain = 0
KME1 052334Z 17003KT 38/15 A2983 RMK A01 T03800145  RH  025%=      5-min Rain = 0
KME1 052335Z 16002KT 38/14 A2983 RMK A01 T03810144  RH  025%=      5-min Rain = 0
KME1 052336Z 15003KT 38/14 A2983 RMK A01 T03810144  RH  025%=      5-min Rain = 0
KME1 052337Z 10004KT 38/15 A2983 RMK A01 T03810146  RH  025%=      5-min Rain = 0
KME1 052338Z 12005KT 38/15 A2983 RMK A01 T03810149  RH  025%=      5-min Rain = 0
KME1 052339Z 13007KT 38/15 A2983 RMK A01 T03800147  RH  025%=      5-min Rain = 0
KME1 052340Z 15008KT 38/15 A2983 RMK A01 T03790145  RH  025%=      5-min Rain = 0
KME1 052341Z 16006KT 38/15 A2983 RMK A01 T03780146  RH  025%=      5-min Rain = 0
KME1 052342Z 15006KT 38/15 A2982 RMK A01 T03780146  RH  025%=      5-min Rain = 0
KME1 052343Z 13007KT 38/15 A2982 RMK A01 T03790147  RH  025%=      5-min Rain = 0
KME1 052344Z 12006KT 38/14 A2982 RMK A01 T03780143  RH  025%=      5-min Rain = 0
KME1 052345Z 10005KT 38/15 A2982 RMK A01 T03780147  RH  025%=      5-min Rain = 0
KME1 052346Z 10006KT 38/14 A2983 RMK A01 T03780143  RH  025%=      5-min Rain = 0
KME1 052347Z 10007KT 38/14 A2983 RMK A01 T03770144  RH  025%=      5-min Rain = 0
KME1 052348Z 11007KT 38/14 A2983 RMK A01 T03760144  RH  025%=      5-min Rain = 0
KME1 052349Z 11009KT 38/14 A2983 RMK A01 T03760144  RH  025%=      5-min Rain = 0
KME1 052350Z 09007KT 37/14 A2983 RMK A01 T03740142  RH  025%=      5-min Rain = 0
KME1 052351Z 10005KT 37/14 A2982 RMK A01 T03740142  RH  025%=      5-min Rain = 0
KME1 052352Z 10006KT 37/14 A2982 RMK A01 T03730143  RH  026%=      5-min Rain = 0
KME1 052353Z 10006KT 37/14 A2982 RMK A01 T03740143  RH  025%=      5-min Rain = 0
KME1 052354Z 11006KT 37/14 A2982 RMK A01 T03740143  RH  025%=      5-min Rain = 0
KME1 052355Z 12004KT 37/14 A2982 RMK A01 T03730142  RH  025%=      5-min Rain = 0
KME1 052356Z 14006KT 37/15 A2982 RMK A01 T03730146  RH  026%=      5-min Rain = 0
KME1 052357Z 14007KT 37/15 A2982 RMK A01 T03740146  RH  026%=      5-min Rain = 0
KME1 052358Z 14005KT 38/14 A2982 RMK A01 T03750143  RH  025%=      5-min Rain = 0
KME1 052359Z 11004KT 37/15 A2982 RMK A01 T03740145  RH  026%=      5-min Rain = 0
KME1 060000Z 11006KT 37/15 A2982 RMK A01 T03740147  RH  026%=      5-min Rain = 0
KME1 060001Z 08006KT 37/15 A2983 RMK A01 T03740146  RH  026%=      5-min Rain = 0
KME1 060002Z 09007KT 37/15 A2983 RMK A01 T03730145  RH  026%=      5-min Rain = 0
KME1 060003Z 10007KT 37/15 A2983 RMK A01 T03730147  RH  026%=      5-min Rain = 0
KME1 060004Z 11007KT 37/15 A2983 RMK A01 T03730148  RH  026%=      5-min Rain = 0
KME1 060005Z 11006KT 37/15 A2982 RMK A01 T03720149  RH  027%=      5-min Rain = 0
KME1 060006Z 11006KT 37/15 A2982 RMK A01 T03720148  RH  027%=      5-min Rain = 0
KME1 060007Z 11004KT 37/15 A2982 RMK A01 T03720148  RH  026%=      5-min Rain = 0
KME1 060008Z 09004KT 37/15 A2982 RMK A01 T03720149  RH  027%=      5-min Rain = 0
KME1 060009Z 09005KT 37/15 A2982 RMK A01 T03720148  RH  027%=      5-min Rain = 0
KME1 060010Z 11004KT 37/15 A2982 RMK A01 T03720148  RH  027%=      5-min Rain = 0
KME1 060011Z 12004KT 37/15 A2982 RMK A01 T03720151  RH  027%=      5-min Rain = 0
KME1 060012Z 11004KT 37/16 A2982 RMK A01 T03720155  RH  028%=      5-min Rain = 0
KME1 060013Z 14005KT 37/16 A2982 RMK A01 T03730155  RH  028%=      5-min Rain = 0
KME1 060014Z 12010KT 37/15 A2982 RMK A01 T03730151  RH  027%=      5-min Rain = 0
KME1 060015Z 12008KT 37/15 A2982 RMK A01 T03720150  RH  027%=      5-min Rain = 0
KME1 060016Z 11008KT 37/15 A2982 RMK A01 T03720152  RH  027%=      5-min Rain = 0
KME1 060017Z 11008KT 37/15 A2982 RMK A01 T03710147  RH  026%=      5-min Rain = 0
KME1 060018Z 11009KT 37/15 A2982 RMK A01 T03700148  RH  027%=      5-min Rain = 0
KME1 060019Z 11008KT 37/15 A2982 RMK A01 T03700149  RH  027%=      5-min Rain = 0
KME1 060020Z 12007KT 37/15 A2982 RMK A01 T03700147  RH  027%=      5-min Rain = 0
KME1 060021Z 11005KT 37/15 A2982 RMK A01 T03690148  RH  027%=      5-min Rain = 0
KME1 060022Z 13007KT 37/15 A2982 RMK A01 T03700149  RH  027%=      5-min Rain = 0
KME1 060023Z 12008KT 37/15 A2982 RMK A01 T03700148  RH  027%=      5-min Rain = 0
KME1 060024Z 12007KT 37/15 A2982 RMK A01 T03690147  RH  027%=      5-min Rain = 0
KME1 060025Z 12005KT 37/15 A2982 RMK A01 T03690148  RH  027%=      5-min Rain = 0
KME1 060026Z 12005KT 37/15 A2982 RMK A01 T03690149  RH  027%=      5-min Rain = 0
KME1 060027Z 13006KT 37/15 A2982 RMK A01 T03690149  RH  027%=      5-min Rain = 0
KME1 060028Z 14005KT 37/15 A2982 RMK A01 T03690150  RH  027%=      5-min Rain = 0
KME1 060029Z 13004KT 37/15 A2982 RMK A01 T03690152  RH  028%=      5-min Rain = 0
KME1 060030Z 12004KT 37/15 A2982 RMK A01 T03690152  RH  028%=      5-min Rain = 0
KME1 060031Z 13006KT 37/15 A2982 RMK A01 T03690153  RH  028%=      5-min Rain = 0
KME1 060032Z 13005KT 37/15 A2982 RMK A01 T03690154  RH  028%=      5-min Rain = 0
KME1 060033Z 10005KT 37/15 A2982 RMK A01 T03690154  RH  028%=      5-min Rain = 0
KME1 060034Z 09005KT 37/15 A2982 RMK A01 T03680154  RH  028%=      5-min Rain = 0
KME1 060035Z 10005KT 37/15 A2982 RMK A01 T03680151  RH  028%=      5-min Rain = 0
KME1 060036Z 10003KT 37/16 A2982 RMK A01 T03670155  RH  028%=      5-min Rain = 0
KME1 060037Z 11004KT 37/16 A2982 RMK A01 T03670156  RH  029%=      5-min Rain = 0
KME1 060038Z 11005KT 37/15 A2982 RMK A01 T03670153  RH  028%=      5-min Rain = 0
KME1 060039Z 11003KT 37/15 A2982 RMK A01 T03670154  RH  028%=      5-min Rain = 0
KME1 060040Z 12004KT 37/16 A2982 RMK A01 T03670156  RH  029%=      5-min Rain = 0
KME1 060041Z 11003KT 37/16 A2982 RMK A01 T03660159  RH  029%=      5-min Rain = 0
KME1 060042Z 11004KT 37/16 A2982 RMK A01 T03660158  RH  029%=      5-min Rain = 0
KME1 060043Z 12005KT 37/16 A2982 RMK A01 T03660155  RH  029%=      5-min Rain = 0
KME1 060044Z 13005KT 37/15 A2982 RMK A01 T03660153  RH  028%=      5-min Rain = 0
KME1 060045Z 12004KT 37/15 A2982 RMK A01 T03650153  RH  028%=      5-min Rain = 0
KME1 060046Z 11003KT 37/15 A2982 RMK A01 T03650153  RH  028%=      5-min Rain = 0
KME1 060047Z 11004KT 37/15 A2982 RMK A01 T03650152  RH  028%=      5-min Rain = 0
KME1 060048Z 11004KT 37/16 A2982 RMK A01 T03650155  RH  029%=      5-min Rain = 0
KME1 060049Z 11003KT 37/16 A2982 RMK A01 T03650155  RH  029%=      5-min Rain = 0
KME1 060050Z 11004KT 36/15 A2982 RMK A01 T03640154  RH  029%=      5-min Rain = 0
KME1 060051Z 11004KT 36/15 A2982 RMK A01 T03640154  RH  029%=      5-min Rain = 0
KME1 060052Z 11004KT 36/15 A2982 RMK A01 T03640154  RH  029%=      5-min Rain = 0
KME1 060053Z 11004KT 36/15 A2982 RMK A01 T03640154  RH  029%=      5-min Rain = 0
KME1 060054Z 10003KT 36/16 A2982 RMK A01 T03630156  RH  029%=      5-min Rain = 0
KME1 060055Z 10004KT 36/15 A2982 RMK A01 T03630154  RH  029%=      5-min Rain = 0
KME1 060056Z 10005KT 36/16 A2982 RMK A01 T03630155  RH  029%=      5-min Rain = 0
KME1 060057Z 11004KT 36/15 A2982 RMK A01 T03630153  RH  029%=      5-min Rain = 0
KME1 060058Z 10005KT 36/16 A2982 RMK A01 T03620155  RH  029%=      5-min Rain = 0
KME1 060059Z 11004KT 36/16 A2982 RMK A01 T03620155  RH  029%=      5-min Rain = 0
KME1 060100Z 11004KT 36/16 A2982 RMK A01 T03610156  RH  030%=      5-min Rain = 0
KME1 060101Z 10005KT 36/15 A2982 RMK A01 T03610154  RH  029%=      5-min Rain = 0
KME1 060102Z 11005KT 36/16 A2983 RMK A01 T03600156  RH  030%=      5-min Rain = 0
KME1 060103Z 12006KT 36/16 A2983 RMK A01 T03600157  RH  030%=      5-min Rain = 0
KME1 060104Z 13006KT 36/16 A2983 RMK A01 T03590156  RH  030%=      5-min Rain = 0
KME1 060105Z 12008G13KT 36/16 A2983 RMK A01 T03590157  RH  030%=      5-min Rain = 0
KME1 060106Z 13011KT 36/16 A2983 RMK A01 T03580159  RH  031%=      5-min Rain = 0
KME1 060107Z 13009KT 36/16 A2983 RMK A01 T03570161  RH  031%=      5-min Rain = 0
KME1 060108Z 13006KT 36/16 A2983 RMK A01 T03560162  RH  032%=      5-min Rain = 0
KME1 060109Z 14008KT 36/16 A2983 RMK A01 T03550162  RH  032%=      5-min Rain = 0
KME1 060110Z 13006KT 36/16 A2983 RMK A01 T03550163  RH  032%=      5-min Rain = 0
KME1 060111Z 13006KT 35/16 A2983 RMK A01 T03540162  RH  032%=      5-min Rain = 0
KME1 060112Z 14009KT 35/16 A2983 RMK A01 T03540163  RH  032%=      5-min Rain = 0
KME1 060113Z 13007KT 35/16 A2983 RMK A01 T03530163  RH  032%=      5-min Rain = 0
KME1 060114Z 13009KT 35/16 A2983 RMK A01 T03530163  RH  032%=      5-min Rain = 0
KME1 060115Z 14008KT 35/16 A2983 RMK A01 T03530163  RH  032%=      5-min Rain = 0
KME1 060116Z 13008KT 35/16 A2983 RMK A01 T03520164  RH  033%=      5-min Rain = 0
KME1 060117Z 12007KT 35/16 A2983 RMK A01 T03510164  RH  033%=      5-min Rain = 0
KME1 060118Z 13007KT 35/16 A2983 RMK A01 T03510164  RH  033%=      5-min Rain = 0
KME1 060119Z 13008KT 35/16 A2983 RMK A01 T03500164  RH  033%=      5-min Rain = 0
KME1 060120Z 13008KT 35/16 A2983 RMK A01 T03490163  RH  033%=      5-min Rain = 0
KME1 060121Z 13007KT 35/16 A2983 RMK A01 T03490163  RH  033%=      5-min Rain = 0
KME1 060122Z 13008KT 35/16 A2983 RMK A01 T03480164  RH  033%=      5-min Rain = 0
KME1 060123Z 13007KT 35/16 A2983 RMK A01 T03480164  RH  033%=      5-min Rain = 0
KME1 060124Z 13009KT 35/17 A2983 RMK A01 T03470165  RH  034%=      5-min Rain = 0
KME1 060125Z 14007KT 35/16 A2983 RMK A01 T03460164  RH  034%=      5-min Rain = 0
KME1 060126Z 14009KT 35/16 A2983 RMK A01 T03460164  RH  034%=      5-min Rain = 0
KME1 060127Z 14009KT 35/16 A2983 RMK A01 T03450164  RH  034%=      5-min Rain = 0
KME1 060128Z 14008KT 35/17 A2983 RMK A01 T03450165  RH  034%=      5-min Rain = 0
KME1 060129Z 13011KT 35/16 A2983 RMK A01 T03450164  RH  034%=      5-min Rain = 0
KME1 060130Z 14009KT 34/16 A2983 RMK A01 T03440163  RH  034%=      5-min Rain = 0
KME1 060131Z 14009KT 34/16 A2983 RMK A01 T03440164  RH  034%=      5-min Rain = 0
KME1 060132Z 14010KT 34/16 A2983 RMK A01 T03430164  RH  034%=      5-min Rain = 0
KME1 060133Z 14009KT 34/16 A2983 RMK A01 T03430163  RH  034%=      5-min Rain = 0
KME1 060134Z 14008KT 34/16 A2983 RMK A01 T03430163  RH  034%=      5-min Rain = 0
KME1 060135Z 14009KT 34/16 A2983 RMK A01 T03420164  RH  035%=      5-min Rain = 0
KME1 060136Z 14009KT 34/16 A2983 RMK A01 T03410163  RH  035%=      5-min Rain = 0
KME1 060137Z 14007KT 34/16 A2983 RMK A01 T03410164  RH  035%=      5-min Rain = 0
KME1 060138Z 14008KT 34/16 A2983 RMK A01 T03400163  RH  035%=      5-min Rain = 0
KME1 060139Z 14008KT 34/16 A2983 RMK A01 T03390163  RH  035%=      5-min Rain = 0
KME1 060140Z 14009KT 34/16 A2983 RMK A01 T03390163  RH  035%=      5-min Rain = 0
KME1 060141Z 14010KT 34/16 A2983 RMK A01 T03390163  RH  035%=      5-min Rain = 0
KME1 060142Z 15009KT 34/16 A2983 RMK A01 T03390162  RH  035%=      5-min Rain = 0
KME1 060143Z 14008KT 34/16 A2983 RMK A01 T03390163  RH  035%=      5-min Rain = 0
KME1 060144Z 14008KT 34/16 A2983 RMK A01 T03380163  RH  035%=      5-min Rain = 0
KME1 060145Z 13006KT 34/16 A2984 RMK A01 T03370163  RH  035%=      5-min Rain = 0
KME1 060146Z 15007KT 34/16 A2984 RMK A01 T03360163  RH  036%=      5-min Rain = 0
KME1 060147Z 14008KT 34/16 A2984 RMK A01 T03360163  RH  036%=      5-min Rain = 0
KME1 060148Z 14008KT 34/16 A2984 RMK A01 T03350163  RH  036%=      5-min Rain = 0
KME1 060149Z 14007KT 34/16 A2984 RMK A01 T03350163  RH  036%=      5-min Rain = 0
KME1 060150Z 14007KT 34/16 A2984 RMK A01 T03350164  RH  036%=      5-min Rain = 0
KME1 060151Z 14008KT 33/16 A2984 RMK A01 T03340163  RH  036%=      5-min Rain = 0
KME1 060152Z 14009KT 33/16 A2984 RMK A01 T03330163  RH  036%=      5-min Rain = 0
KME1 060153Z 14008KT 33/16 A2984 RMK A01 T03330163  RH  036%=      5-min Rain = 0
KME1 060154Z 15008KT 33/16 A2984 RMK A01 T03320163  RH  036%=      5-min Rain = 0
KME1 060155Z 15008KT 33/16 A2984 RMK A01 T03320162  RH  036%=      5-min Rain = 0
KME1 060156Z 15008KT 33/16 A2984 RMK A01 T03320163  RH  036%=      5-min Rain = 0
KME1 060157Z 15008KT 33/16 A2984 RMK A01 T03320163  RH  036%=      5-min Rain = 0
KME1 060158Z 15007KT 33/16 A2984 RMK A01 T03310163  RH  037%=      5-min Rain = 0
KME1 060159Z 15009KT 33/16 A2984 RMK A01 T03300163  RH  037%=      5-min Rain = 0
KME1 060200Z 15007KT 33/16 A2984 RMK A01 T03300162  RH  037%=      5-min Rain = 0
KME1 060201Z 15008KT 33/16 A2984 RMK A01 T03300163  RH  037%=      5-min Rain = 0
KME1 060202Z 15008KT 33/16 A2985 RMK A01 T03290163  RH  037%=      5-min Rain = 0
KME1 060203Z 14009KT 33/16 A2985 RMK A01 T03280163  RH  037%=      5-min Rain = 0
KME1 060204Z 14007KT 33/16 A2985 RMK A01 T03280163  RH  037%=      5-min Rain = 0
KME1 060205Z 15008KT 33/16 A2985 RMK A01 T03290164  RH  037%=      5-min Rain = 0
KME1 060206Z 14009KT 33/16 A2985 RMK A01 T03280163  RH  037%=      5-min Rain = 0
KME1 060207Z 14009KT 33/16 A2985 RMK A01 T03280163  RH  037%=      5-min Rain = 0
KME1 060208Z 14007KT 33/16 A2985 RMK A01 T03280164  RH  037%=      5-min Rain = 0
KME1 060209Z 14009KT 33/16 A2985 RMK A01 T03270164  RH  038%=      5-min Rain = 0
KME1 060210Z 14008KT 33/17 A2985 RMK A01 T03270165  RH  038%=      5-min Rain = 0
KME1 060211Z 15008KT 33/17 A2985 RMK A01 T03260165  RH  038%=      5-min Rain = 0
KME1 060212Z 15008G13KT 33/17 A2985 RMK A01 T03260165  RH  038%=      5-min Rain = 0
KME1 060213Z 14009KT 33/17 A2985 RMK A01 T03260165  RH  038%=      5-min Rain = 0
KME1 060214Z 14010KT 33/17 A2985 RMK A01 T03260165  RH  038%=      5-min Rain = 0
KME1 060215Z 14009KT 33/17 A2985 RMK A01 T03260166  RH  038%=      5-min Rain = 0
KME1 060216Z 15007KT 33/17 A2985 RMK A01 T03250166  RH  038%=      5-min Rain = 0
KME1 060217Z 14007KT 33/17 A2985 RMK A01 T03250166  RH  039%=      5-min Rain = 0
KME1 060218Z 15007KT 32/17 A2985 RMK A01 T03240166  RH  039%=      5-min Rain = 0
KME1 060219Z 15007KT 32/17 A2985 RMK A01 T03240167  RH  039%=      5-min Rain = 0
KME1 060220Z 14006KT 32/17 A2985 RMK A01 T03230167  RH  039%=      5-min Rain = 0
KME1 060221Z 15007KT 32/17 A2985 RMK A01 T03220167  RH  039%=      5-min Rain = 0
KME1 060222Z 15007KT 32/17 A2985 RMK A01 T03220167  RH  040%=      5-min Rain = 0
KME1 060223Z 15006KT 32/17 A2985 RMK A01 T03210167  RH  040%=      5-min Rain = 0
KME1 060224Z 15007KT 32/17 A2985 RMK A01 T03200167  RH  040%=      5-min Rain = 0
KME1 060225Z 15009KT 32/17 A2985 RMK A01 T03200166  RH  040%=      5-min Rain = 0
KME1 060226Z 15008KT 32/17 A2985 RMK A01 T03210166  RH  040%=      5-min Rain = 0
KME1 060227Z 14007KT 32/17 A2985 RMK A01 T03210166  RH  040%=      5-min Rain = 0
KME1 060228Z 15007KT 32/17 A2985 RMK A01 T03210167  RH  040%=      5-min Rain = 0
KME1 060229Z 15005KT 32/17 A2985 RMK A01 T03210167  RH  040%=      5-min Rain = 0
KME1 060230Z 15007KT 32/17 A2985 RMK A01 T03200167  RH  040%=      5-min Rain = 0
KME1 060231Z 15008KT 32/17 A2985 RMK A01 T03190167  RH  040%=      5-min Rain = 0
KME1 060232Z 16006KT 32/17 A2985 RMK A01 T03190166  RH  040%=      5-min Rain = 0
KME1 060233Z 15005KT 32/17 A2985 RMK A01 T03190167  RH  040%=      5-min Rain = 0
KME1 060234Z 15006KT 32/17 A2985 RMK A01 T03180168  RH  041%=      5-min Rain = 0
KME1 060235Z 16007KT 32/17 A2985 RMK A01 T03170167  RH  041%=      5-min Rain = 0
KME1 060236Z 16006KT 32/17 A2985 RMK A01 T03160167  RH  041%=      5-min Rain = 0
KME1 060237Z 16006KT 32/17 A2985 RMK A01 T03160168  RH  041%=      5-min Rain = 0
KME1 060238Z 16006KT 32/17 A2986 RMK A01 T03150167  RH  041%=      5-min Rain = 0
KME1 060239Z 16006KT 32/17 A2986 RMK A01 T03150168  RH  041%=      5-min Rain = 0
KME1 060240Z 16006KT 31/17 A2986 RMK A01 T03140167  RH  041%=      5-min Rain = 0
KME1 060241Z 16005KT 32/17 A2986 RMK A01 T03150168  RH  041%=      5-min Rain = 0
KME1 060242Z 15005KT 31/17 A2986 RMK A01 T03140168  RH  042%=      5-min Rain = 0
KME1 060243Z 16005KT 31/17 A2986 RMK A01 T03120168  RH  042%=      5-min Rain = 0
KME1 060244Z 16005KT 31/17 A2986 RMK A01 T03120168  RH  042%=      5-min Rain = 0
KME1 060245Z 16005KT 31/17 A2986 RMK A01 T03120168  RH  042%=      5-min Rain = 0
KME1 060246Z 16005KT 31/17 A2986 RMK A01 T03120168  RH  042%=      5-min Rain = 0
KME1 060247Z 17006KT 31/17 A2986 RMK A01 T03120167  RH  042%=      5-min Rain = 0
KME1 060248Z 16007KT 31/17 A2986 RMK A01 T03120167  RH  042%=      5-min Rain = 0
KME1 060249Z 17006KT 31/17 A2986 RMK A01 T03120167  RH  042%=      5-min Rain = 0
KME1 060250Z 17006KT 31/17 A2986 RMK A01 T03120167  RH  042%=      5-min Rain = 0
KME1 060251Z 16006KT 31/17 A2986 RMK A01 T03120167  RH  042%=      5-min Rain = 0
KME1 060252Z 17005KT 31/17 A2986 RMK A01 T03120167  RH  042%=      5-min Rain = 0
KME1 060253Z 16005KT 31/17 A2986 RMK A01 T03120167  RH  042%=      5-min Rain = 0
KME1 060254Z 16004KT 31/17 A2986 RMK A01 T03120168  RH  042%=      5-min Rain = 0
KME1 060255Z 17004KT 31/17 A2986 RMK A01 T03110168  RH  042%=      5-min Rain = 0
KME1 060256Z 17005KT 31/17 A2986 RMK A01 T03100168  RH  042%=      5-min Rain = 0
KME1 060257Z 17004KT 31/17 A2986 RMK A01 T03100168  RH  043%=      5-min Rain = 0
KME1 060258Z 17005KT 31/17 A2986 RMK A01 T03090167  RH  043%=      5-min Rain = 0
KME1 060259Z 18003KT 31/17 A2986 RMK A01 T03090168  RH  043%=      5-min Rain = 0
KME1 060300Z 16005KT 31/17 A2986 RMK A01 T03090168  RH  043%=      5-min Rain = 0
KME1 060301Z 17004KT 31/17 A2986 RMK A01 T03080168  RH  043%=      5-min Rain = 0
KME1 060302Z 17004KT 31/17 A2987 RMK A01 T03080168  RH  043%=      5-min Rain = 0
KME1 060303Z 18004KT 31/17 A2987 RMK A01 T03080168  RH  043%=      5-min Rain = 0
KME1 060304Z 17004KT 31/17 A2987 RMK A01 T03080168  RH  043%=      5-min Rain = 0
KME1 060305Z 18004KT 31/17 A2987 RMK A01 T03080168  RH  043%=      5-min Rain = 0
KME1 060306Z 17004KT 31/17 A2987 RMK A01 T03070169  RH  043%=      5-min Rain = 0
KME1 060307Z 18004KT 31/17 A2987 RMK A01 T03070168  RH  043%=      5-min Rain = 0
KME1 060308Z 17005KT 31/17 A2987 RMK A01 T03070168  RH  043%=      5-min Rain = 0
KME1 060309Z 18003KT 31/17 A2987 RMK A01 T03070168  RH  043%=      5-min Rain = 0
KME1 060310Z 18004KT 31/17 A2987 RMK A01 T03070168  RH  043%=      5-min Rain = 0
KME1 060311Z 17004KT 31/17 A2987 RMK A01 T03070169  RH  044%=      5-min Rain = 0
KME1 060312Z 17005KT 31/17 A2987 RMK A01 T03070169  RH  044%=      5-min Rain = 0
KME1 060313Z 18004KT 31/17 A2987 RMK A01 T03060168  RH  044%=      5-min Rain = 0
KME1 060314Z 18005KT 31/17 A2987 RMK A01 T03060169  RH  044%=      5-min Rain = 0
KME1 060315Z 18005KT 31/17 A2987 RMK A01 T03050168  RH  044%=      5-min Rain = 0
KME1 060316Z 18004KT 31/17 A2987 RMK A01 T03050169  RH  044%=      5-min Rain = 0
KME1 060317Z 18004KT 31/17 A2987 RMK A01 T03050169  RH  044%=      5-min Rain = 0
KME1 060318Z 18004KT 30/17 A2987 RMK A01 T03040169  RH  044%=      5-min Rain = 0
KME1 060319Z 18004KT 30/17 A2987 RMK A01 T03040169  RH  044%=      5-min Rain = 0
KME1 060320Z 19005KT 30/17 A2987 RMK A01 T03040169  RH  044%=      5-min Rain = 0
KME1 060321Z 19005KT 30/17 A2987 RMK A01 T03030169  RH  044%=      5-min Rain = 0
KME1 060322Z 18005KT 30/17 A2987 RMK A01 T03040169  RH  044%=      5-min Rain = 0
KME1 060323Z 18005KT 30/17 A2987 RMK A01 T03030168  RH  044%=      5-min Rain = 0
KME1 060324Z 17005KT 30/17 A2987 RMK A01 T03040168  RH  044%=      5-min Rain = 0
KME1 060325Z 18005KT 30/17 A2987 RMK A01 T03040168  RH  044%=      5-min Rain = 0
KME1 060326Z 19005KT 31/17 A2987 RMK A01 T03050169  RH  044%=      5-min Rain = 0
KME1 060327Z 17005KT 30/17 A2987 RMK A01 T03040169  RH  044%=      5-min Rain = 0
KME1 060328Z 19003KT 30/17 A2987 RMK A01 T03040169  RH  044%=      5-min Rain = 0
KME1 060329Z 18003KT 30/17 A2987 RMK A01 T03040170  RH  044%=      5-min Rain = 0
KME1 060330Z 17004KT 30/17 A2987 RMK A01 T03030170  RH  045%=      5-min Rain = 0
KME1 060331Z 18004KT 30/17 A2987 RMK A01 T03020169  RH  045%=      5-min Rain = 0
KME1 060332Z 17004KT 30/17 A2987 RMK A01 T03020169  RH  045%=      5-min Rain = 0
KME1 060333Z 17004KT 30/17 A2987 RMK A01 T03020169  RH  045%=      5-min Rain = 0
KME1 060334Z 17004KT 30/17 A2987 RMK A01 T03010169  RH  045%=      5-min Rain = 0
KME1 060335Z 17004KT 30/17 A2987 RMK A01 T03000169  RH  045%=      5-min Rain = 0
KME1 060336Z 17004KT 30/17 A2987 RMK A01 T03000169  RH  045%=      5-min Rain = 0
KME1 060337Z 18004KT 30/17 A2987 RMK A01 T03000169  RH  045%=      5-min Rain = 0
KME1 060338Z 18003KT 30/17 A2987 RMK A01 T03000170  RH  046%=      5-min Rain = 0
KME1 060339Z 18003KT 30/17 A2987 RMK A01 T02990169  RH  046%=      5-min Rain = 0
KME1 060340Z 19004KT 30/17 A2987 RMK A01 T02990170  RH  046%=      5-min Rain = 0
KME1 060341Z 19003KT 30/17 A2987 RMK A01 T02980169  RH  046%=      5-min Rain = 0
KME1 060342Z 20003KT 30/17 A2987 RMK A01 T02980170  RH  046%=      5-min Rain = 0
KME1 060343Z 19003KT 30/17 A2987 RMK A01 T02980169  RH  046%=      5-min Rain = 0
KME1 060344Z 20003KT 30/17 A2987 RMK A01 T02970169  RH  046%=      5-min Rain = 0
KME1 060345Z 19003KT 30/17 A2987 RMK A01 T02970169  RH  046%=      5-min Rain = 0
KME1 060346Z 19003KT 30/17 A2987 RMK A01 T02970168  RH  046%=      5-min Rain = 0
KME1 060347Z 19003KT 30/17 A2988 RMK A01 T02970169  RH  046%=      5-min Rain = 0
KME1 060348Z 20003KT 30/17 A2988 RMK A01 T02970170  RH  046%=      5-min Rain = 0
KME1 060349Z 19003KT 30/17 A2988 RMK A01 T02960169  RH  046%=      5-min Rain = 0
KME1 060350Z 20004KT 30/17 A2988 RMK A01 T02960169  RH  046%=      5-min Rain = 0
KME1 060351Z 20003KT 30/17 A2988 RMK A01 T02960169  RH  046%=      5-min Rain = 0
KME1 060352Z 21003KT 30/17 A2988 RMK A01 T02970170  RH  046%=      5-min Rain = 0
KME1 060353Z 22003KT 30/17 A2988 RMK A01 T02970170  RH  046%=      5-min Rain = 0
KME1 060354Z 23005KT 30/17 A2989 RMK A01 T02960171  RH  047%=      5-min Rain = 0
KME1 060355Z 24009KT 30/17 A2989 RMK A01 T02950171  RH  047%=      5-min Rain = 0
KME1 060356Z 25011KT 30/17 A299 RMK A01 T02950171  RH  047%=      5-min Rain = 0
KME1 060357Z 26010KT 30/17 A299 RMK A01 T02950170  RH  047%=      5-min Rain = 0
KME1 060358Z 27007KT 30/17 A299 RMK A01 T02950170  RH  047%=      5-min Rain = 0
KME1 060359Z 27006KT 30/17 A299 RMK A01 T02970170  RH  047%=      5-min Rain = 0
KME1 060400Z 25009KT 30/17 A299 RMK A01 T02970170  RH  046%=      5-min Rain = 0
KME1 060401Z 25009KT 30/17 A299 RMK A01 T02990168  RH  045%=      5-min Rain = 0
KME1 060402Z 25009G15KT 30/17 A299 RMK A01 T03010169  RH  045%=      5-min Rain = 0
KME1 060403Z 24009KT 30/17 A299 RMK A01 T03020167  RH  044%=      5-min Rain = 0
KME1 060404Z 19004KT 30/17 A299 RMK A01 T03040166  RH  043%=      5-min Rain = 0
KME1 060405Z 19003KT 31/17 A299 RMK A01 T03060167  RH  043%=      5-min Rain = 0
KME1 060406Z 20003KT 31/17 A299 RMK A01 T03070166  RH  043%=      5-min Rain = 0
KME1 060407Z 23004KT 31/17 A299 RMK A01 T03080165  RH  042%=      5-min Rain = 0
KME1 060408Z 23005KT 31/17 A299 RMK A01 T03090167  RH  042%=      5-min Rain = 0
KME1 060409Z 23005KT 31/17 A299 RMK A01 T03090167  RH  042%=      5-min Rain = 0
KME1 060410Z 22004KT 31/17 A2991 RMK A01 T03090166  RH  042%=      5-min Rain = 0
KME1 060411Z 23003KT 31/17 A2991 RMK A01 T03090166  RH  042%=      5-min Rain = 0
KME1 060412Z 25004KT 31/17 A2991 RMK A01 T03090166  RH  042%=      5-min Rain = 0
KME1 060413Z 23006KT 31/17 A2991 RMK A01 T03090166  RH  042%=      5-min Rain = 0
KME1 060414Z 23008KT 31/17 A2991 RMK A01 T03090166  RH  042%=      5-min Rain = 0
KME1 060415Z 23007G12KT 31/17 A2991 RMK A01 T03090165  RH  042%=      5-min Rain = 0
KME1 060416Z 23008KT 31/16 A2991 RMK A01 T03090164  RH  042%=      5-min Rain = 0
KME1 060417Z 23008KT 31/17 A2991 RMK A01 T03100165  RH  042%=      5-min Rain = 0
KME1 060418Z 22006KT 31/17 A2992 RMK A01 T03100165  RH  042%=      5-min Rain = 0
KME1 060419Z 23006KT 31/17 A2992 RMK A01 T03100165  RH  042%=      5-min Rain = 0
KME1 060420Z 24007KT 31/17 A2992 RMK A01 T03100165  RH  042%=      5-min Rain = 0
KME1 060421Z 26005KT 31/17 A2992 RMK A01 T03100165  RH  042%=      5-min Rain = 0
KME1 060422Z 27007KT 31/17 A2992 RMK A01 T03100166  RH  042%=      5-min Rain = 0
KME1 060423Z 26007KT 31/17 A2993 RMK A01 T03100165  RH  042%=      5-min Rain = 0
KME1 060424Z 27007KT 31/17 A2993 RMK A01 T03100165  RH  042%=      5-min Rain = 0
KME1 060425Z 27007KT 31/17 A2993 RMK A01 T03100166  RH  042%=      5-min Rain = 0
KME1 060426Z 27006KT 31/17 A2993 RMK A01 T03100166  RH  042%=      5-min Rain = 0
KME1 060427Z 29006KT 31/17 A2993 RMK A01 T03090166  RH  042%=      5-min Rain = 0
KME1 060428Z 29005KT 31/17 A2993 RMK A01 T03090166  RH  042%=      5-min Rain = 0
KME1 060429Z 28004KT 31/17 A2993 RMK A01 T03090166  RH  042%=      5-min Rain = 0
KME1 060430Z 30006KT 31/17 A2993 RMK A01 T03080166  RH  042%=      5-min Rain = 0
KME1 060431Z 30004KT 31/17 A2993 RMK A01 T03080166  RH  042%=      5-min Rain = 0
KME1 060432Z 31006KT 31/17 A2993 RMK A01 T03080167  RH  043%=      5-min Rain = 0
KME1 060433Z 30006KT 31/17 A2993 RMK A01 T03080167  RH  043%=      5-min Rain = 0
KME1 060434Z 30006KT 31/17 A2994 RMK A01 T03070168  RH  043%=      5-min Rain = 0
KME1 060435Z 30007KT 31/17 A2994 RMK A01 T03060168  RH  044%=      5-min Rain = 0
KME1 060436Z 30008KT 31/17 A2994 RMK A01 T03050168  RH  044%=      5-min Rain = 0
KME1 060437Z 30008KT 30/17 A2994 RMK A01 T03040168  RH  044%=      5-min Rain = 0
KME1 060438Z 30008KT 30/17 A2994 RMK A01 T03040168  RH  044%=      5-min Rain = 0
KME1 060439Z 30008KT 30/17 A2994 RMK A01 T03040168  RH  044%=      5-min Rain = 0
KME1 060440Z 30009KT 30/17 A2994 RMK A01 T03040170  RH  045%=      5-min Rain = 0
KME1 060441Z 29012KT 30/18 A2995 RMK A01 T03020178  RH  047%=      5-min Rain = 0
KME1 060442Z 29012KT 30/19 A2995 RMK A01 T02960185  RH  051%=      5-min Rain = 0
KME1 060443Z 29012G17KT 29/19 A2995 RMK A01 T02870190  RH  056%=      5-min Rain = 0
KME1 060444Z 30013G20KT 28/19 A2995 RMK A01 T02790190  RH  058%=      5-min Rain = 0
KME1 060445Z 30016G21KT 27/19 A2995 RMK A01 T02710190  RH  061%=      5-min Rain = 0
KME1 060446Z 30016G22KT 26/19 A2995 RMK A01 T02630188  RH  063%=      5-min Rain = 0
KME1 060447Z 30013KT 26/19 A2996 RMK A01 T02570188  RH  066%=      5-min Rain = 0.02
KME1 060448Z 29013KT 25/18 A2996 RMK A01 T02540184  RH  065%=      5-min Rain = 0.01
KME1 060449Z 30013KT 25/19 A2996 RMK A01 T02530185  RH  066%=      5-min Rain = 0.01
KME1 060450Z 30010KT 25/19 A2996 RMK A01 T02510185  RH  067%=      5-min Rain = 0.01
KME1 060451Z 30009KT 25/19 A2995 RMK A01 T02490186  RH  068%=      5-min Rain = 0.02
KME1 060452Z 29011KT 25/19 A2995 RMK A01 T02460188  RH  070%=      5-min Rain = 0.01
KME1 060453Z 29014KT 24/19 A2995 RMK A01 T02430187  RH  071%=      5-min Rain = 0.01
KME1 060454Z 28014KT 24/19 A2995 RMK A01 T02430189  RH  072%=      5-min Rain = 0.01
KME1 060455Z 28014KT 24/18 A2995 RMK A01 T02420183  RH  069%=      5-min Rain = 0
KME1 060456Z 26015KT 25/18 A2995 RMK A01 T02470182  RH  067%=      5-min Rain = 0.01
KME1 060457Z 25015KT 25/19 A2995 RMK A01 T02490186  RH  068%=      5-min Rain = 0
KME1 060458Z 26016KT 25/19 A2995 RMK A01 T02490187  RH  068%=      5-min Rain = 0.01
KME1 060459Z 23013KT 25/19 A2995 RMK A01 T02480191  RH  070%=      5-min Rain = 0

Page generated in 0.1318 seconds.